<?xml version="1.0" encoding="UTF-8" standalone="no" ?>
<gpx xmlns="http://www.topografix.com/GPX/1/1" xmlns:xsi="http://www.w3.org/2001/XMLSchema-instance" xsi:schemaLocation="http://www.topografix.com/GPX/1/1 http://www.topografix.com/GPX/1/1/gpx.xsd" version="1.1" creator="VisuGPX - https://www.visugpx.com">
  <metadata>
    <name>La Besbre de La chabanne à St Clement</name>
    <desc><![CDATA[Boucle autour de la Besbre]]></desc>
  </metadata>
  <trk>
    <name><![CDATA[2015-04-22 12:19]]></name>
    <desc><![CDATA[<h1>OruxMaps</h1><br /><hr align="center" width="480" style="height: 2px; width: 517px"/><h2>Nom: 2015-04-22 12:19</h2><br /><p>Temps de départ: 04/22/2015 12:19</p><p>Temps d'arrivée: 04/22/2015 14:10</p><p>Distance: 20,6km (01:50)</p><p>Temps déplacement: 01:30</p><p>Vitesse moyenne: 11,1km/h</p><p>Vitesse moyenne: 13,6km/h</p><p>Vitess Max.: 37,3km/h</p><p>Altitude minimale: 480m</p><p>Altitude maximale: 685m</p><p>Vitesse d'élévation: 557,7m/h</p><p>Vitesse de descente: -851,5m/h</p><p>Gain Altitude: 547m</p><p>Perte Altitude: -560m</p><p>Temps d'élévation: 00:58</p><p>Temps de descente: 00:39</p><hr align="center" width="480" style="height: 2px; width: 517px"/>]]></desc>
    <trkseg>
      <trkpt lat="46.0371" lon="3.7311">
        <ele>532.48</ele>
        <time>2015-04-22T10:19:14Z</time>
      </trkpt>
      <trkpt lat="46.03724" lon="3.73093">
        <ele>511.92</ele>
        <time>2015-04-22T10:21:20Z</time>
      </trkpt>
      <trkpt lat="46.03735" lon="3.73071">
        <ele>511.25</ele>
        <time>2015-04-22T10:21:29Z</time>
      </trkpt>
      <trkpt lat="46.03745" lon="3.73044">
        <ele>511.03</ele>
        <time>2015-04-22T10:21:38Z</time>
      </trkpt>
      <trkpt lat="46.03746" lon="3.73015">
        <ele>511.85</ele>
        <time>2015-04-22T10:21:43Z</time>
      </trkpt>
      <trkpt lat="46.03748" lon="3.72986">
        <ele>512.53</ele>
        <time>2015-04-22T10:21:48Z</time>
      </trkpt>
      <trkpt lat="46.03754" lon="3.7296">
        <ele>512.55</ele>
        <time>2015-04-22T10:21:52Z</time>
      </trkpt>
      <trkpt lat="46.03765" lon="3.72937">
        <ele>511.18</ele>
        <time>2015-04-22T10:21:56Z</time>
      </trkpt>
      <trkpt lat="46.03779" lon="3.72912">
        <ele>509.84</ele>
        <time>2015-04-22T10:22:00Z</time>
      </trkpt>
      <trkpt lat="46.03794" lon="3.72892">
        <ele>508.7</ele>
        <time>2015-04-22T10:22:04Z</time>
      </trkpt>
      <trkpt lat="46.03809" lon="3.72873">
        <ele>507.62</ele>
        <time>2015-04-22T10:22:08Z</time>
      </trkpt>
      <trkpt lat="46.03824" lon="3.72854">
        <ele>507.81</ele>
        <time>2015-04-22T10:22:12Z</time>
      </trkpt>
      <trkpt lat="46.03841" lon="3.72835">
        <ele>507.63</ele>
        <time>2015-04-22T10:22:16Z</time>
      </trkpt>
      <trkpt lat="46.03861" lon="3.72818">
        <ele>507.93</ele>
        <time>2015-04-22T10:22:20Z</time>
      </trkpt>
      <trkpt lat="46.03878" lon="3.72804">
        <ele>507.64</ele>
        <time>2015-04-22T10:22:24Z</time>
      </trkpt>
      <trkpt lat="46.03896" lon="3.7279">
        <ele>506.12</ele>
        <time>2015-04-22T10:22:28Z</time>
      </trkpt>
      <trkpt lat="46.03914" lon="3.72776">
        <ele>506.53</ele>
        <time>2015-04-22T10:22:32Z</time>
      </trkpt>
      <trkpt lat="46.03931" lon="3.72763">
        <ele>506.24</ele>
        <time>2015-04-22T10:22:36Z</time>
      </trkpt>
      <trkpt lat="46.03946" lon="3.72743">
        <ele>506.53</ele>
        <time>2015-04-22T10:22:40Z</time>
      </trkpt>
      <trkpt lat="46.03958" lon="3.72718">
        <ele>506.05</ele>
        <time>2015-04-22T10:22:44Z</time>
      </trkpt>
      <trkpt lat="46.03968" lon="3.7269">
        <ele>506.46</ele>
        <time>2015-04-22T10:22:48Z</time>
      </trkpt>
      <trkpt lat="46.0398" lon="3.72662">
        <ele>505.61</ele>
        <time>2015-04-22T10:22:52Z</time>
      </trkpt>
      <trkpt lat="46.03994" lon="3.72635">
        <ele>505.56</ele>
        <time>2015-04-22T10:22:56Z</time>
      </trkpt>
      <trkpt lat="46.04008" lon="3.72617">
        <ele>505.55</ele>
        <time>2015-04-22T10:22:59Z</time>
      </trkpt>
      <trkpt lat="46.04023" lon="3.72603">
        <ele>505.8</ele>
        <time>2015-04-22T10:23:02Z</time>
      </trkpt>
      <trkpt lat="46.04042" lon="3.72583">
        <ele>505.38</ele>
        <time>2015-04-22T10:23:06Z</time>
      </trkpt>
      <trkpt lat="46.04061" lon="3.72563">
        <ele>507.79</ele>
        <time>2015-04-22T10:23:10Z</time>
      </trkpt>
      <trkpt lat="46.04081" lon="3.72548">
        <ele>508.38</ele>
        <time>2015-04-22T10:23:14Z</time>
      </trkpt>
      <trkpt lat="46.04102" lon="3.72548">
        <ele>509.42</ele>
        <time>2015-04-22T10:23:18Z</time>
      </trkpt>
      <trkpt lat="46.04123" lon="3.72552">
        <ele>510.42</ele>
        <time>2015-04-22T10:23:22Z</time>
      </trkpt>
      <trkpt lat="46.04142" lon="3.72554">
        <ele>510.54</ele>
        <time>2015-04-22T10:23:26Z</time>
      </trkpt>
      <trkpt lat="46.04161" lon="3.72551">
        <ele>509.3</ele>
        <time>2015-04-22T10:23:44Z</time>
      </trkpt>
      <trkpt lat="46.04179" lon="3.72532">
        <ele>509.55</ele>
        <time>2015-04-22T10:23:50Z</time>
      </trkpt>
      <trkpt lat="46.04197" lon="3.72511">
        <ele>508.68</ele>
        <time>2015-04-22T10:23:54Z</time>
      </trkpt>
      <trkpt lat="46.04211" lon="3.72495">
        <ele>508.69</ele>
        <time>2015-04-22T10:23:57Z</time>
      </trkpt>
      <trkpt lat="46.04228" lon="3.72479">
        <ele>509.07</ele>
        <time>2015-04-22T10:24:00Z</time>
      </trkpt>
      <trkpt lat="46.04246" lon="3.72464">
        <ele>509.12</ele>
        <time>2015-04-22T10:24:03Z</time>
      </trkpt>
      <trkpt lat="46.04267" lon="3.72447">
        <ele>510</ele>
        <time>2015-04-22T10:24:06Z</time>
      </trkpt>
      <trkpt lat="46.04288" lon="3.72431">
        <ele>510.36</ele>
        <time>2015-04-22T10:24:09Z</time>
      </trkpt>
      <trkpt lat="46.04308" lon="3.72415">
        <ele>510.53</ele>
        <time>2015-04-22T10:24:12Z</time>
      </trkpt>
      <trkpt lat="46.04328" lon="3.724">
        <ele>510.55</ele>
        <time>2015-04-22T10:24:15Z</time>
      </trkpt>
      <trkpt lat="46.04347" lon="3.72383">
        <ele>510.05</ele>
        <time>2015-04-22T10:24:18Z</time>
      </trkpt>
      <trkpt lat="46.04365" lon="3.72362">
        <ele>508.37</ele>
        <time>2015-04-22T10:24:21Z</time>
      </trkpt>
      <trkpt lat="46.0438" lon="3.72336">
        <ele>507.4</ele>
        <time>2015-04-22T10:24:24Z</time>
      </trkpt>
      <trkpt lat="46.04396" lon="3.72313">
        <ele>506.28</ele>
        <time>2015-04-22T10:24:27Z</time>
      </trkpt>
      <trkpt lat="46.0441" lon="3.72289">
        <ele>504.27</ele>
        <time>2015-04-22T10:24:30Z</time>
      </trkpt>
      <trkpt lat="46.04425" lon="3.72265">
        <ele>503.64</ele>
        <time>2015-04-22T10:24:33Z</time>
      </trkpt>
      <trkpt lat="46.04439" lon="3.72241">
        <ele>502.69</ele>
        <time>2015-04-22T10:24:36Z</time>
      </trkpt>
      <trkpt lat="46.04453" lon="3.72218">
        <ele>502.07</ele>
        <time>2015-04-22T10:24:39Z</time>
      </trkpt>
      <trkpt lat="46.04467" lon="3.72196">
        <ele>501.12</ele>
        <time>2015-04-22T10:24:42Z</time>
      </trkpt>
      <trkpt lat="46.04481" lon="3.72174">
        <ele>500.12</ele>
        <time>2015-04-22T10:24:45Z</time>
      </trkpt>
      <trkpt lat="46.04495" lon="3.7215">
        <ele>499.12</ele>
        <time>2015-04-22T10:24:48Z</time>
      </trkpt>
      <trkpt lat="46.04511" lon="3.72125">
        <ele>498.37</ele>
        <time>2015-04-22T10:24:51Z</time>
      </trkpt>
      <trkpt lat="46.04526" lon="3.72101">
        <ele>498.53</ele>
        <time>2015-04-22T10:24:54Z</time>
      </trkpt>
      <trkpt lat="46.04541" lon="3.72076">
        <ele>499.43</ele>
        <time>2015-04-22T10:24:57Z</time>
      </trkpt>
      <trkpt lat="46.04555" lon="3.72053">
        <ele>499.66</ele>
        <time>2015-04-22T10:25:00Z</time>
      </trkpt>
      <trkpt lat="46.04568" lon="3.72032">
        <ele>500.44</ele>
        <time>2015-04-22T10:25:03Z</time>
      </trkpt>
      <trkpt lat="46.0458" lon="3.72012">
        <ele>500.54</ele>
        <time>2015-04-22T10:25:06Z</time>
      </trkpt>
      <trkpt lat="46.04593" lon="3.71992">
        <ele>500.55</ele>
        <time>2015-04-22T10:25:09Z</time>
      </trkpt>
      <trkpt lat="46.04605" lon="3.7197">
        <ele>499.8</ele>
        <time>2015-04-22T10:25:12Z</time>
      </trkpt>
      <trkpt lat="46.04618" lon="3.71947">
        <ele>500.33</ele>
        <time>2015-04-22T10:25:15Z</time>
      </trkpt>
      <trkpt lat="46.04632" lon="3.71925">
        <ele>500.53</ele>
        <time>2015-04-22T10:25:18Z</time>
      </trkpt>
      <trkpt lat="46.04648" lon="3.71903">
        <ele>499.67</ele>
        <time>2015-04-22T10:25:21Z</time>
      </trkpt>
      <trkpt lat="46.04663" lon="3.71879">
        <ele>499.57</ele>
        <time>2015-04-22T10:25:24Z</time>
      </trkpt>
      <trkpt lat="46.04677" lon="3.71856">
        <ele>499.05</ele>
        <time>2015-04-22T10:25:27Z</time>
      </trkpt>
      <trkpt lat="46.04691" lon="3.71833">
        <ele>498.62</ele>
        <time>2015-04-22T10:25:30Z</time>
      </trkpt>
      <trkpt lat="46.04705" lon="3.71808">
        <ele>498.56</ele>
        <time>2015-04-22T10:25:33Z</time>
      </trkpt>
      <trkpt lat="46.0472" lon="3.71785">
        <ele>498.18</ele>
        <time>2015-04-22T10:25:36Z</time>
      </trkpt>
      <trkpt lat="46.04734" lon="3.71764">
        <ele>497.76</ele>
        <time>2015-04-22T10:25:39Z</time>
      </trkpt>
      <trkpt lat="46.04748" lon="3.71744">
        <ele>497.58</ele>
        <time>2015-04-22T10:25:42Z</time>
      </trkpt>
      <trkpt lat="46.04765" lon="3.71719">
        <ele>496.62</ele>
        <time>2015-04-22T10:25:46Z</time>
      </trkpt>
      <trkpt lat="46.04779" lon="3.71694">
        <ele>496.62</ele>
        <time>2015-04-22T10:25:50Z</time>
      </trkpt>
      <trkpt lat="46.04788" lon="3.7167">
        <ele>497.31</ele>
        <time>2015-04-22T10:25:54Z</time>
      </trkpt>
      <trkpt lat="46.04797" lon="3.71645">
        <ele>496.66</ele>
        <time>2015-04-22T10:25:58Z</time>
      </trkpt>
      <trkpt lat="46.0481" lon="3.71626">
        <ele>497.99</ele>
        <time>2015-04-22T10:26:05Z</time>
      </trkpt>
      <trkpt lat="46.04813" lon="3.71597">
        <ele>498.8</ele>
        <time>2015-04-22T10:26:24Z</time>
      </trkpt>
      <trkpt lat="46.04823" lon="3.71573">
        <ele>499.32</ele>
        <time>2015-04-22T10:26:30Z</time>
      </trkpt>
      <trkpt lat="46.04832" lon="3.71549">
        <ele>500.05</ele>
        <time>2015-04-22T10:26:35Z</time>
      </trkpt>
      <trkpt lat="46.04846" lon="3.71527">
        <ele>499.08</ele>
        <time>2015-04-22T10:26:39Z</time>
      </trkpt>
      <trkpt lat="46.04862" lon="3.71513">
        <ele>498.09</ele>
        <time>2015-04-22T10:26:43Z</time>
      </trkpt>
      <trkpt lat="46.0488" lon="3.715">
        <ele>497.71</ele>
        <time>2015-04-22T10:26:47Z</time>
      </trkpt>
      <trkpt lat="46.049" lon="3.71488">
        <ele>498.5</ele>
        <time>2015-04-22T10:26:51Z</time>
      </trkpt>
      <trkpt lat="46.04922" lon="3.71475">
        <ele>497.61</ele>
        <time>2015-04-22T10:26:55Z</time>
      </trkpt>
      <trkpt lat="46.04938" lon="3.71461">
        <ele>497.31</ele>
        <time>2015-04-22T10:26:58Z</time>
      </trkpt>
      <trkpt lat="46.04955" lon="3.71449">
        <ele>496.65</ele>
        <time>2015-04-22T10:27:01Z</time>
      </trkpt>
      <trkpt lat="46.04976" lon="3.71436">
        <ele>496.06</ele>
        <time>2015-04-22T10:27:05Z</time>
      </trkpt>
      <trkpt lat="46.04995" lon="3.71423">
        <ele>495.58</ele>
        <time>2015-04-22T10:27:09Z</time>
      </trkpt>
      <trkpt lat="46.05011" lon="3.7141">
        <ele>497.68</ele>
        <time>2015-04-22T10:27:12Z</time>
      </trkpt>
      <trkpt lat="46.05033" lon="3.71399">
        <ele>497.56</ele>
        <time>2015-04-22T10:27:16Z</time>
      </trkpt>
      <trkpt lat="46.0505" lon="3.71388">
        <ele>496.3</ele>
        <time>2015-04-22T10:27:19Z</time>
      </trkpt>
      <trkpt lat="46.05068" lon="3.71379">
        <ele>494.4</ele>
        <time>2015-04-22T10:27:22Z</time>
      </trkpt>
      <trkpt lat="46.05089" lon="3.71363">
        <ele>494.17</ele>
        <time>2015-04-22T10:27:26Z</time>
      </trkpt>
      <trkpt lat="46.05109" lon="3.71343">
        <ele>494.03</ele>
        <time>2015-04-22T10:27:30Z</time>
      </trkpt>
      <trkpt lat="46.05128" lon="3.71323">
        <ele>492.71</ele>
        <time>2015-04-22T10:27:34Z</time>
      </trkpt>
      <trkpt lat="46.05147" lon="3.71306">
        <ele>493.06</ele>
        <time>2015-04-22T10:27:38Z</time>
      </trkpt>
      <trkpt lat="46.05165" lon="3.71287">
        <ele>494.15</ele>
        <time>2015-04-22T10:27:42Z</time>
      </trkpt>
      <trkpt lat="46.0518" lon="3.7127">
        <ele>494.5</ele>
        <time>2015-04-22T10:27:45Z</time>
      </trkpt>
      <trkpt lat="46.052" lon="3.71252">
        <ele>493.17</ele>
        <time>2015-04-22T10:27:49Z</time>
      </trkpt>
      <trkpt lat="46.05216" lon="3.71237">
        <ele>491.76</ele>
        <time>2015-04-22T10:27:52Z</time>
      </trkpt>
      <trkpt lat="46.05231" lon="3.71222">
        <ele>491.58</ele>
        <time>2015-04-22T10:27:55Z</time>
      </trkpt>
      <trkpt lat="46.05247" lon="3.71209">
        <ele>490.56</ele>
        <time>2015-04-22T10:27:58Z</time>
      </trkpt>
      <trkpt lat="46.05265" lon="3.71198">
        <ele>491.05</ele>
        <time>2015-04-22T10:28:01Z</time>
      </trkpt>
      <trkpt lat="46.05286" lon="3.71185">
        <ele>491.33</ele>
        <time>2015-04-22T10:28:05Z</time>
      </trkpt>
      <trkpt lat="46.05309" lon="3.71173">
        <ele>491.79</ele>
        <time>2015-04-22T10:28:09Z</time>
      </trkpt>
      <trkpt lat="46.05326" lon="3.71162">
        <ele>491.58</ele>
        <time>2015-04-22T10:28:12Z</time>
      </trkpt>
      <trkpt lat="46.05342" lon="3.71149">
        <ele>490.68</ele>
        <time>2015-04-22T10:28:15Z</time>
      </trkpt>
      <trkpt lat="46.05362" lon="3.71128">
        <ele>491.19</ele>
        <time>2015-04-22T10:28:19Z</time>
      </trkpt>
      <trkpt lat="46.05383" lon="3.71112">
        <ele>491.53</ele>
        <time>2015-04-22T10:28:23Z</time>
      </trkpt>
      <trkpt lat="46.05399" lon="3.71096">
        <ele>491.8</ele>
        <time>2015-04-22T10:28:26Z</time>
      </trkpt>
      <trkpt lat="46.05413" lon="3.71082">
        <ele>492.21</ele>
        <time>2015-04-22T10:28:29Z</time>
      </trkpt>
      <trkpt lat="46.0543" lon="3.71068">
        <ele>493.01</ele>
        <time>2015-04-22T10:28:32Z</time>
      </trkpt>
      <trkpt lat="46.05447" lon="3.71054">
        <ele>492.99</ele>
        <time>2015-04-22T10:28:35Z</time>
      </trkpt>
      <trkpt lat="46.05463" lon="3.7104">
        <ele>493.36</ele>
        <time>2015-04-22T10:28:38Z</time>
      </trkpt>
      <trkpt lat="46.05482" lon="3.71027">
        <ele>493.9</ele>
        <time>2015-04-22T10:28:41Z</time>
      </trkpt>
      <trkpt lat="46.05501" lon="3.71013">
        <ele>494.47</ele>
        <time>2015-04-22T10:28:44Z</time>
      </trkpt>
      <trkpt lat="46.05522" lon="3.71005">
        <ele>492.42</ele>
        <time>2015-04-22T10:28:47Z</time>
      </trkpt>
      <trkpt lat="46.0554" lon="3.70996">
        <ele>492.29</ele>
        <time>2015-04-22T10:28:50Z</time>
      </trkpt>
      <trkpt lat="46.0556" lon="3.70984">
        <ele>490.89</ele>
        <time>2015-04-22T10:28:53Z</time>
      </trkpt>
      <trkpt lat="46.05582" lon="3.70969">
        <ele>488.57</ele>
        <time>2015-04-22T10:28:57Z</time>
      </trkpt>
      <trkpt lat="46.056" lon="3.70956">
        <ele>488.56</ele>
        <time>2015-04-22T10:29:00Z</time>
      </trkpt>
      <trkpt lat="46.05619" lon="3.70943">
        <ele>489.43</ele>
        <time>2015-04-22T10:29:03Z</time>
      </trkpt>
      <trkpt lat="46.05637" lon="3.70927">
        <ele>488.91</ele>
        <time>2015-04-22T10:29:06Z</time>
      </trkpt>
      <trkpt lat="46.05655" lon="3.70913">
        <ele>487.72</ele>
        <time>2015-04-22T10:29:09Z</time>
      </trkpt>
      <trkpt lat="46.05672" lon="3.70893">
        <ele>487.57</ele>
        <time>2015-04-22T10:29:12Z</time>
      </trkpt>
      <trkpt lat="46.0569" lon="3.70875">
        <ele>485.93</ele>
        <time>2015-04-22T10:29:15Z</time>
      </trkpt>
      <trkpt lat="46.05709" lon="3.7086">
        <ele>485.35</ele>
        <time>2015-04-22T10:29:18Z</time>
      </trkpt>
      <trkpt lat="46.05726" lon="3.70845">
        <ele>485.28</ele>
        <time>2015-04-22T10:29:21Z</time>
      </trkpt>
      <trkpt lat="46.05747" lon="3.70829">
        <ele>487.35</ele>
        <time>2015-04-22T10:29:25Z</time>
      </trkpt>
      <trkpt lat="46.05764" lon="3.70818">
        <ele>487.65</ele>
        <time>2015-04-22T10:29:28Z</time>
      </trkpt>
      <trkpt lat="46.05784" lon="3.70804">
        <ele>488</ele>
        <time>2015-04-22T10:29:32Z</time>
      </trkpt>
      <trkpt lat="46.05806" lon="3.7079">
        <ele>488.27</ele>
        <time>2015-04-22T10:29:36Z</time>
      </trkpt>
      <trkpt lat="46.05825" lon="3.70777">
        <ele>487.64</ele>
        <time>2015-04-22T10:29:39Z</time>
      </trkpt>
      <trkpt lat="46.05842" lon="3.70761">
        <ele>487.56</ele>
        <time>2015-04-22T10:29:42Z</time>
      </trkpt>
      <trkpt lat="46.0586" lon="3.70742">
        <ele>486.8</ele>
        <time>2015-04-22T10:29:45Z</time>
      </trkpt>
      <trkpt lat="46.05879" lon="3.70724">
        <ele>485.21</ele>
        <time>2015-04-22T10:29:48Z</time>
      </trkpt>
      <trkpt lat="46.05898" lon="3.70706">
        <ele>483.76</ele>
        <time>2015-04-22T10:29:51Z</time>
      </trkpt>
      <trkpt lat="46.05916" lon="3.7069">
        <ele>482.7</ele>
        <time>2015-04-22T10:29:54Z</time>
      </trkpt>
      <trkpt lat="46.05934" lon="3.70676">
        <ele>481.82</ele>
        <time>2015-04-22T10:29:57Z</time>
      </trkpt>
      <trkpt lat="46.05954" lon="3.70666">
        <ele>481.71</ele>
        <time>2015-04-22T10:30:00Z</time>
      </trkpt>
      <trkpt lat="46.05973" lon="3.70654">
        <ele>481.57</ele>
        <time>2015-04-22T10:30:03Z</time>
      </trkpt>
      <trkpt lat="46.05994" lon="3.70646">
        <ele>480.68</ele>
        <time>2015-04-22T10:30:06Z</time>
      </trkpt>
      <trkpt lat="46.06012" lon="3.70635">
        <ele>481.94</ele>
        <time>2015-04-22T10:30:09Z</time>
      </trkpt>
      <trkpt lat="46.06032" lon="3.70625">
        <ele>482.98</ele>
        <time>2015-04-22T10:30:12Z</time>
      </trkpt>
      <trkpt lat="46.06052" lon="3.70615">
        <ele>483.48</ele>
        <time>2015-04-22T10:30:15Z</time>
      </trkpt>
      <trkpt lat="46.06071" lon="3.70606">
        <ele>483.04</ele>
        <time>2015-04-22T10:30:18Z</time>
      </trkpt>
      <trkpt lat="46.06088" lon="3.70597">
        <ele>483.49</ele>
        <time>2015-04-22T10:30:21Z</time>
      </trkpt>
      <trkpt lat="46.0611" lon="3.70587">
        <ele>483.24</ele>
        <time>2015-04-22T10:30:25Z</time>
      </trkpt>
      <trkpt lat="46.06129" lon="3.70579">
        <ele>482.64</ele>
        <time>2015-04-22T10:30:28Z</time>
      </trkpt>
      <trkpt lat="46.06146" lon="3.7057">
        <ele>482.56</ele>
        <time>2015-04-22T10:30:31Z</time>
      </trkpt>
      <trkpt lat="46.06167" lon="3.70555">
        <ele>482.05</ele>
        <time>2015-04-22T10:30:35Z</time>
      </trkpt>
      <trkpt lat="46.06185" lon="3.70539">
        <ele>482.02</ele>
        <time>2015-04-22T10:30:39Z</time>
      </trkpt>
      <trkpt lat="46.06202" lon="3.70522">
        <ele>481.33</ele>
        <time>2015-04-22T10:30:43Z</time>
      </trkpt>
      <trkpt lat="46.06217" lon="3.70507">
        <ele>481.54</ele>
        <time>2015-04-22T10:30:47Z</time>
      </trkpt>
      <trkpt lat="46.06226" lon="3.70481">
        <ele>483.37</ele>
        <time>2015-04-22T10:30:52Z</time>
      </trkpt>
      <trkpt lat="46.06216" lon="3.70453">
        <ele>483.54</ele>
        <time>2015-04-22T10:30:56Z</time>
      </trkpt>
      <trkpt lat="46.06204" lon="3.70426">
        <ele>483.49</ele>
        <time>2015-04-22T10:31:00Z</time>
      </trkpt>
      <trkpt lat="46.06187" lon="3.70404">
        <ele>482.8</ele>
        <time>2015-04-22T10:31:04Z</time>
      </trkpt>
      <trkpt lat="46.06169" lon="3.70388">
        <ele>482.57</ele>
        <time>2015-04-22T10:31:08Z</time>
      </trkpt>
      <trkpt lat="46.06151" lon="3.70373">
        <ele>481.68</ele>
        <time>2015-04-22T10:31:12Z</time>
      </trkpt>
      <trkpt lat="46.06135" lon="3.70359">
        <ele>482.37</ele>
        <time>2015-04-22T10:31:16Z</time>
      </trkpt>
      <trkpt lat="46.06122" lon="3.70339">
        <ele>482.54</ele>
        <time>2015-04-22T10:31:20Z</time>
      </trkpt>
      <trkpt lat="46.06114" lon="3.70311">
        <ele>483.49</ele>
        <time>2015-04-22T10:31:25Z</time>
      </trkpt>
      <trkpt lat="46.06105" lon="3.70284">
        <ele>482.18</ele>
        <time>2015-04-22T10:31:30Z</time>
      </trkpt>
      <trkpt lat="46.06098" lon="3.70257">
        <ele>481.07</ele>
        <time>2015-04-22T10:31:35Z</time>
      </trkpt>
      <trkpt lat="46.06085" lon="3.70236">
        <ele>481.52</ele>
        <time>2015-04-22T10:31:39Z</time>
      </trkpt>
      <trkpt lat="46.06068" lon="3.70217">
        <ele>483.71</ele>
        <time>2015-04-22T10:31:44Z</time>
      </trkpt>
      <trkpt lat="46.06051" lon="3.70203">
        <ele>483.56</ele>
        <time>2015-04-22T10:31:49Z</time>
      </trkpt>
      <trkpt lat="46.06032" lon="3.70197">
        <ele>483.87</ele>
        <time>2015-04-22T10:31:54Z</time>
      </trkpt>
      <trkpt lat="46.06013" lon="3.70203">
        <ele>486.45</ele>
        <time>2015-04-22T10:32:01Z</time>
      </trkpt>
      <trkpt lat="46.05994" lon="3.7021">
        <ele>484.75</ele>
        <time>2015-04-22T10:32:08Z</time>
      </trkpt>
      <trkpt lat="46.05975" lon="3.70218">
        <ele>485.54</ele>
        <time>2015-04-22T10:32:15Z</time>
      </trkpt>
      <trkpt lat="46.05961" lon="3.70235">
        <ele>485.08</ele>
        <time>2015-04-22T10:32:21Z</time>
      </trkpt>
      <trkpt lat="46.05946" lon="3.70253">
        <ele>485.24</ele>
        <time>2015-04-22T10:32:24Z</time>
      </trkpt>
      <trkpt lat="46.0593" lon="3.70273">
        <ele>486.78</ele>
        <time>2015-04-22T10:32:28Z</time>
      </trkpt>
      <trkpt lat="46.05914" lon="3.70291">
        <ele>488.63</ele>
        <time>2015-04-22T10:32:32Z</time>
      </trkpt>
      <trkpt lat="46.05897" lon="3.70311">
        <ele>488.56</ele>
        <time>2015-04-22T10:32:37Z</time>
      </trkpt>
      <trkpt lat="46.05881" lon="3.70325">
        <ele>490.37</ele>
        <time>2015-04-22T10:32:41Z</time>
      </trkpt>
      <trkpt lat="46.05864" lon="3.70342">
        <ele>489.6</ele>
        <time>2015-04-22T10:32:45Z</time>
      </trkpt>
      <trkpt lat="46.05848" lon="3.70357">
        <ele>488.68</ele>
        <time>2015-04-22T10:32:49Z</time>
      </trkpt>
      <trkpt lat="46.0583" lon="3.70374">
        <ele>489</ele>
        <time>2015-04-22T10:32:53Z</time>
      </trkpt>
      <trkpt lat="46.05815" lon="3.70393">
        <ele>489.52</ele>
        <time>2015-04-22T10:32:57Z</time>
      </trkpt>
      <trkpt lat="46.05798" lon="3.70406">
        <ele>489.05</ele>
        <time>2015-04-22T10:33:01Z</time>
      </trkpt>
      <trkpt lat="46.05779" lon="3.7041">
        <ele>489.52</ele>
        <time>2015-04-22T10:33:05Z</time>
      </trkpt>
      <trkpt lat="46.05757" lon="3.70406">
        <ele>488.11</ele>
        <time>2015-04-22T10:33:10Z</time>
      </trkpt>
      <trkpt lat="46.05738" lon="3.7041">
        <ele>488.53</ele>
        <time>2015-04-22T10:33:14Z</time>
      </trkpt>
      <trkpt lat="46.05722" lon="3.70422">
        <ele>488.55</ele>
        <time>2015-04-22T10:33:18Z</time>
      </trkpt>
      <trkpt lat="46.05706" lon="3.70437">
        <ele>489.3</ele>
        <time>2015-04-22T10:33:22Z</time>
      </trkpt>
      <trkpt lat="46.05689" lon="3.70452">
        <ele>489.54</ele>
        <time>2015-04-22T10:33:26Z</time>
      </trkpt>
      <trkpt lat="46.05671" lon="3.70469">
        <ele>489.55</ele>
        <time>2015-04-22T10:33:30Z</time>
      </trkpt>
      <trkpt lat="46.05654" lon="3.70488">
        <ele>487.87</ele>
        <time>2015-04-22T10:33:34Z</time>
      </trkpt>
      <trkpt lat="46.05636" lon="3.70505">
        <ele>488.07</ele>
        <time>2015-04-22T10:33:38Z</time>
      </trkpt>
      <trkpt lat="46.0562" lon="3.70518">
        <ele>489.24</ele>
        <time>2015-04-22T10:33:41Z</time>
      </trkpt>
      <trkpt lat="46.056" lon="3.70534">
        <ele>489.6</ele>
        <time>2015-04-22T10:33:45Z</time>
      </trkpt>
      <trkpt lat="46.05579" lon="3.70549">
        <ele>489.37</ele>
        <time>2015-04-22T10:33:49Z</time>
      </trkpt>
      <trkpt lat="46.05563" lon="3.70563">
        <ele>490.03</ele>
        <time>2015-04-22T10:33:52Z</time>
      </trkpt>
      <trkpt lat="46.05547" lon="3.70578">
        <ele>490.4</ele>
        <time>2015-04-22T10:33:56Z</time>
      </trkpt>
      <trkpt lat="46.0553" lon="3.70591">
        <ele>490.54</ele>
        <time>2015-04-22T10:34:00Z</time>
      </trkpt>
      <trkpt lat="46.05513" lon="3.70605">
        <ele>491.93</ele>
        <time>2015-04-22T10:34:04Z</time>
      </trkpt>
      <trkpt lat="46.05495" lon="3.70622">
        <ele>492.19</ele>
        <time>2015-04-22T10:34:09Z</time>
      </trkpt>
      <trkpt lat="46.05478" lon="3.70641">
        <ele>492.73</ele>
        <time>2015-04-22T10:34:14Z</time>
      </trkpt>
      <trkpt lat="46.05463" lon="3.70658">
        <ele>491.25</ele>
        <time>2015-04-22T10:34:18Z</time>
      </trkpt>
      <trkpt lat="46.05443" lon="3.70672">
        <ele>492.89</ele>
        <time>2015-04-22T10:34:23Z</time>
      </trkpt>
      <trkpt lat="46.05423" lon="3.70681">
        <ele>492.72</ele>
        <time>2015-04-22T10:34:28Z</time>
      </trkpt>
      <trkpt lat="46.05405" lon="3.7069">
        <ele>493.75</ele>
        <time>2015-04-22T10:34:33Z</time>
      </trkpt>
      <trkpt lat="46.05386" lon="3.70695">
        <ele>496.01</ele>
        <time>2015-04-22T10:34:39Z</time>
      </trkpt>
      <trkpt lat="46.05367" lon="3.70699">
        <ele>497.03</ele>
        <time>2015-04-22T10:34:45Z</time>
      </trkpt>
      <trkpt lat="46.05348" lon="3.707">
        <ele>498.01</ele>
        <time>2015-04-22T10:34:51Z</time>
      </trkpt>
      <trkpt lat="46.05329" lon="3.70704">
        <ele>498.53</ele>
        <time>2015-04-22T10:34:57Z</time>
      </trkpt>
      <trkpt lat="46.05309" lon="3.70705">
        <ele>498.22</ele>
        <time>2015-04-22T10:35:03Z</time>
      </trkpt>
      <trkpt lat="46.05288" lon="3.70704">
        <ele>499.17</ele>
        <time>2015-04-22T10:35:09Z</time>
      </trkpt>
      <trkpt lat="46.05267" lon="3.70703">
        <ele>499.55</ele>
        <time>2015-04-22T10:35:15Z</time>
      </trkpt>
      <trkpt lat="46.05247" lon="3.707">
        <ele>499.55</ele>
        <time>2015-04-22T10:35:20Z</time>
      </trkpt>
      <trkpt lat="46.05225" lon="3.70699">
        <ele>499.54</ele>
        <time>2015-04-22T10:35:26Z</time>
      </trkpt>
      <trkpt lat="46.05205" lon="3.70708">
        <ele>498.62</ele>
        <time>2015-04-22T10:35:31Z</time>
      </trkpt>
      <trkpt lat="46.05192" lon="3.70729">
        <ele>499.47</ele>
        <time>2015-04-22T10:35:38Z</time>
      </trkpt>
      <trkpt lat="46.05174" lon="3.70752">
        <ele>499.93</ele>
        <time>2015-04-22T10:35:44Z</time>
      </trkpt>
      <trkpt lat="46.05156" lon="3.70761">
        <ele>497.76</ele>
        <time>2015-04-22T10:35:48Z</time>
      </trkpt>
      <trkpt lat="46.05138" lon="3.70779">
        <ele>498</ele>
        <time>2015-04-22T10:35:53Z</time>
      </trkpt>
      <trkpt lat="46.05123" lon="3.70801">
        <ele>499.75</ele>
        <time>2015-04-22T10:35:58Z</time>
      </trkpt>
      <trkpt lat="46.05108" lon="3.70821">
        <ele>499.98</ele>
        <time>2015-04-22T10:36:04Z</time>
      </trkpt>
      <trkpt lat="46.0509" lon="3.70838">
        <ele>499.08</ele>
        <time>2015-04-22T10:36:10Z</time>
      </trkpt>
      <trkpt lat="46.05073" lon="3.70852">
        <ele>500.04</ele>
        <time>2015-04-22T10:36:15Z</time>
      </trkpt>
      <trkpt lat="46.05055" lon="3.70865">
        <ele>502.22</ele>
        <time>2015-04-22T10:36:20Z</time>
      </trkpt>
      <trkpt lat="46.05037" lon="3.70876">
        <ele>503.29</ele>
        <time>2015-04-22T10:36:25Z</time>
      </trkpt>
      <trkpt lat="46.05019" lon="3.70887">
        <ele>503.61</ele>
        <time>2015-04-22T10:36:30Z</time>
      </trkpt>
      <trkpt lat="46.05001" lon="3.70897">
        <ele>502.62</ele>
        <time>2015-04-22T10:36:35Z</time>
      </trkpt>
      <trkpt lat="46.04982" lon="3.70909">
        <ele>502.06</ele>
        <time>2015-04-22T10:36:39Z</time>
      </trkpt>
      <trkpt lat="46.04965" lon="3.70926">
        <ele>502.33</ele>
        <time>2015-04-22T10:36:43Z</time>
      </trkpt>
      <trkpt lat="46.04952" lon="3.70944">
        <ele>502.98</ele>
        <time>2015-04-22T10:36:47Z</time>
      </trkpt>
      <trkpt lat="46.04938" lon="3.70961">
        <ele>503.54</ele>
        <time>2015-04-22T10:36:53Z</time>
      </trkpt>
      <trkpt lat="46.04922" lon="3.70976">
        <ele>504.02</ele>
        <time>2015-04-22T10:37:00Z</time>
      </trkpt>
      <trkpt lat="46.04906" lon="3.70989">
        <ele>500.15</ele>
        <time>2015-04-22T10:37:47Z</time>
      </trkpt>
      <trkpt lat="46.04888" lon="3.70998">
        <ele>502.95</ele>
        <time>2015-04-22T10:37:53Z</time>
      </trkpt>
      <trkpt lat="46.04872" lon="3.71014">
        <ele>503.54</ele>
        <time>2015-04-22T10:38:00Z</time>
      </trkpt>
      <trkpt lat="46.04863" lon="3.71036">
        <ele>503.89</ele>
        <time>2015-04-22T10:40:25Z</time>
      </trkpt>
      <trkpt lat="46.04849" lon="3.71055">
        <ele>507.68</ele>
        <time>2015-04-22T10:40:36Z</time>
      </trkpt>
      <trkpt lat="46.04835" lon="3.71072">
        <ele>509.96</ele>
        <time>2015-04-22T10:40:46Z</time>
      </trkpt>
      <trkpt lat="46.04818" lon="3.71089">
        <ele>512.04</ele>
        <time>2015-04-22T10:40:54Z</time>
      </trkpt>
      <trkpt lat="46.04802" lon="3.71101">
        <ele>512.06</ele>
        <time>2015-04-22T10:41:02Z</time>
      </trkpt>
      <trkpt lat="46.04783" lon="3.7111">
        <ele>513.75</ele>
        <time>2015-04-22T10:41:11Z</time>
      </trkpt>
      <trkpt lat="46.04764" lon="3.71105">
        <ele>515.3</ele>
        <time>2015-04-22T10:41:20Z</time>
      </trkpt>
      <trkpt lat="46.04746" lon="3.71098">
        <ele>518.28</ele>
        <time>2015-04-22T10:41:29Z</time>
      </trkpt>
      <trkpt lat="46.04729" lon="3.71086">
        <ele>520.45</ele>
        <time>2015-04-22T10:41:38Z</time>
      </trkpt>
      <trkpt lat="46.04715" lon="3.71069">
        <ele>527.54</ele>
        <time>2015-04-22T10:41:47Z</time>
      </trkpt>
      <trkpt lat="46.04698" lon="3.71055">
        <ele>531.26</ele>
        <time>2015-04-22T10:41:56Z</time>
      </trkpt>
      <trkpt lat="46.04681" lon="3.71041">
        <ele>533.72</ele>
        <time>2015-04-22T10:42:05Z</time>
      </trkpt>
      <trkpt lat="46.04664" lon="3.7103">
        <ele>534.42</ele>
        <time>2015-04-22T10:42:13Z</time>
      </trkpt>
      <trkpt lat="46.04648" lon="3.71019">
        <ele>535.38</ele>
        <time>2015-04-22T10:42:21Z</time>
      </trkpt>
      <trkpt lat="46.04629" lon="3.7101">
        <ele>535.54</ele>
        <time>2015-04-22T10:42:29Z</time>
      </trkpt>
      <trkpt lat="46.04609" lon="3.71008">
        <ele>535.55</ele>
        <time>2015-04-22T10:42:37Z</time>
      </trkpt>
      <trkpt lat="46.0459" lon="3.71011">
        <ele>535.33</ele>
        <time>2015-04-22T10:42:45Z</time>
      </trkpt>
      <trkpt lat="46.04572" lon="3.71019">
        <ele>536.04</ele>
        <time>2015-04-22T10:42:53Z</time>
      </trkpt>
      <trkpt lat="46.04554" lon="3.71027">
        <ele>536.8</ele>
        <time>2015-04-22T10:43:01Z</time>
      </trkpt>
      <trkpt lat="46.04535" lon="3.71037">
        <ele>538.05</ele>
        <time>2015-04-22T10:43:11Z</time>
      </trkpt>
      <trkpt lat="46.04516" lon="3.71036">
        <ele>542.86</ele>
        <time>2015-04-22T10:43:19Z</time>
      </trkpt>
      <trkpt lat="46.04501" lon="3.71018">
        <ele>546.21</ele>
        <time>2015-04-22T10:43:28Z</time>
      </trkpt>
      <trkpt lat="46.04484" lon="3.71007">
        <ele>554.79</ele>
        <time>2015-04-22T10:43:36Z</time>
      </trkpt>
      <trkpt lat="46.0447" lon="3.70991">
        <ele>560.06</ele>
        <time>2015-04-22T10:43:44Z</time>
      </trkpt>
      <trkpt lat="46.04456" lon="3.70974">
        <ele>560.97</ele>
        <time>2015-04-22T10:43:52Z</time>
      </trkpt>
      <trkpt lat="46.0444" lon="3.70959">
        <ele>565.14</ele>
        <time>2015-04-22T10:44:00Z</time>
      </trkpt>
      <trkpt lat="46.04423" lon="3.70944">
        <ele>569.81</ele>
        <time>2015-04-22T10:44:09Z</time>
      </trkpt>
      <trkpt lat="46.04411" lon="3.70924">
        <ele>566.52</ele>
        <time>2015-04-22T10:44:17Z</time>
      </trkpt>
      <trkpt lat="46.044" lon="3.70901">
        <ele>566.42</ele>
        <time>2015-04-22T10:44:25Z</time>
      </trkpt>
      <trkpt lat="46.04388" lon="3.70881">
        <ele>568.43</ele>
        <time>2015-04-22T10:44:33Z</time>
      </trkpt>
      <trkpt lat="46.04369" lon="3.70878">
        <ele>564.24</ele>
        <time>2015-04-22T10:44:44Z</time>
      </trkpt>
      <trkpt lat="46.04353" lon="3.7089">
        <ele>562.79</ele>
        <time>2015-04-22T10:44:53Z</time>
      </trkpt>
      <trkpt lat="46.04335" lon="3.70902">
        <ele>565.58</ele>
        <time>2015-04-22T10:45:02Z</time>
      </trkpt>
      <trkpt lat="46.04316" lon="3.70903">
        <ele>565.53</ele>
        <time>2015-04-22T10:45:10Z</time>
      </trkpt>
      <trkpt lat="46.043" lon="3.70887">
        <ele>564.55</ele>
        <time>2015-04-22T10:45:20Z</time>
      </trkpt>
      <trkpt lat="46.04285" lon="3.70872">
        <ele>567.41</ele>
        <time>2015-04-22T10:45:30Z</time>
      </trkpt>
      <trkpt lat="46.04269" lon="3.70856">
        <ele>571.12</ele>
        <time>2015-04-22T10:45:41Z</time>
      </trkpt>
      <trkpt lat="46.04251" lon="3.70866">
        <ele>571.66</ele>
        <time>2015-04-22T10:45:52Z</time>
      </trkpt>
      <trkpt lat="46.04232" lon="3.70874">
        <ele>568.05</ele>
        <time>2015-04-22T10:46:01Z</time>
      </trkpt>
      <trkpt lat="46.04213" lon="3.70879">
        <ele>571.77</ele>
        <time>2015-04-22T10:46:11Z</time>
      </trkpt>
      <trkpt lat="46.04194" lon="3.70882">
        <ele>571.68</ele>
        <time>2015-04-22T10:46:20Z</time>
      </trkpt>
      <trkpt lat="46.04175" lon="3.70888">
        <ele>572.45</ele>
        <time>2015-04-22T10:46:28Z</time>
      </trkpt>
      <trkpt lat="46.04157" lon="3.70898">
        <ele>572.25</ele>
        <time>2015-04-22T10:46:37Z</time>
      </trkpt>
      <trkpt lat="46.04138" lon="3.70909">
        <ele>575.24</ele>
        <time>2015-04-22T10:46:46Z</time>
      </trkpt>
      <trkpt lat="46.0412" lon="3.70914">
        <ele>577.14</ele>
        <time>2015-04-22T10:46:54Z</time>
      </trkpt>
      <trkpt lat="46.04101" lon="3.70923">
        <ele>580.72</ele>
        <time>2015-04-22T10:47:03Z</time>
      </trkpt>
      <trkpt lat="46.04092" lon="3.70945">
        <ele>586.19</ele>
        <time>2015-04-22T10:47:13Z</time>
      </trkpt>
      <trkpt lat="46.04086" lon="3.70971">
        <ele>588.39</ele>
        <time>2015-04-22T10:47:22Z</time>
      </trkpt>
      <trkpt lat="46.04074" lon="3.70994">
        <ele>591.5</ele>
        <time>2015-04-22T10:47:31Z</time>
      </trkpt>
      <trkpt lat="46.04059" lon="3.7101">
        <ele>590.83</ele>
        <time>2015-04-22T10:47:39Z</time>
      </trkpt>
      <trkpt lat="46.04045" lon="3.71027">
        <ele>593.02</ele>
        <time>2015-04-22T10:47:48Z</time>
      </trkpt>
      <trkpt lat="46.04037" lon="3.71051">
        <ele>594.27</ele>
        <time>2015-04-22T10:47:57Z</time>
      </trkpt>
      <trkpt lat="46.04031" lon="3.71077">
        <ele>595.55</ele>
        <time>2015-04-22T10:48:07Z</time>
      </trkpt>
      <trkpt lat="46.04022" lon="3.711">
        <ele>599.23</ele>
        <time>2015-04-22T10:48:16Z</time>
      </trkpt>
      <trkpt lat="46.04006" lon="3.71116">
        <ele>599.57</ele>
        <time>2015-04-22T10:48:26Z</time>
      </trkpt>
      <trkpt lat="46.03988" lon="3.71106">
        <ele>602.26</ele>
        <time>2015-04-22T10:48:35Z</time>
      </trkpt>
      <trkpt lat="46.03969" lon="3.711">
        <ele>605.95</ele>
        <time>2015-04-22T10:48:44Z</time>
      </trkpt>
      <trkpt lat="46.03951" lon="3.711">
        <ele>606.99</ele>
        <time>2015-04-22T10:48:53Z</time>
      </trkpt>
      <trkpt lat="46.03935" lon="3.71112">
        <ele>609.23</ele>
        <time>2015-04-22T10:49:01Z</time>
      </trkpt>
      <trkpt lat="46.03922" lon="3.71132">
        <ele>611.55</ele>
        <time>2015-04-22T10:49:11Z</time>
      </trkpt>
      <trkpt lat="46.03911" lon="3.71154">
        <ele>608.38</ele>
        <time>2015-04-22T10:49:18Z</time>
      </trkpt>
      <trkpt lat="46.03899" lon="3.71181">
        <ele>605.83</ele>
        <time>2015-04-22T10:49:24Z</time>
      </trkpt>
      <trkpt lat="46.03879" lon="3.71189">
        <ele>604.76</ele>
        <time>2015-04-22T10:49:28Z</time>
      </trkpt>
      <trkpt lat="46.03857" lon="3.71189">
        <ele>603.63</ele>
        <time>2015-04-22T10:49:32Z</time>
      </trkpt>
      <trkpt lat="46.03837" lon="3.71185">
        <ele>602.68</ele>
        <time>2015-04-22T10:49:36Z</time>
      </trkpt>
      <trkpt lat="46.03817" lon="3.71195">
        <ele>602.56</ele>
        <time>2015-04-22T10:49:41Z</time>
      </trkpt>
      <trkpt lat="46.03803" lon="3.71216">
        <ele>602.55</ele>
        <time>2015-04-22T10:49:47Z</time>
      </trkpt>
      <trkpt lat="46.03794" lon="3.71238">
        <ele>601.35</ele>
        <time>2015-04-22T10:49:53Z</time>
      </trkpt>
      <trkpt lat="46.03786" lon="3.71266">
        <ele>600.08</ele>
        <time>2015-04-22T10:50:00Z</time>
      </trkpt>
      <trkpt lat="46.03773" lon="3.7129">
        <ele>600.53</ele>
        <time>2015-04-22T10:50:06Z</time>
      </trkpt>
      <trkpt lat="46.03756" lon="3.71308">
        <ele>600.79</ele>
        <time>2015-04-22T10:50:12Z</time>
      </trkpt>
      <trkpt lat="46.03742" lon="3.71324">
        <ele>602.28</ele>
        <time>2015-04-22T10:50:18Z</time>
      </trkpt>
      <trkpt lat="46.03726" lon="3.71341">
        <ele>604.5</ele>
        <time>2015-04-22T10:50:24Z</time>
      </trkpt>
      <trkpt lat="46.03711" lon="3.71358">
        <ele>606.27</ele>
        <time>2015-04-22T10:50:30Z</time>
      </trkpt>
      <trkpt lat="46.03694" lon="3.71373">
        <ele>607.52</ele>
        <time>2015-04-22T10:50:36Z</time>
      </trkpt>
      <trkpt lat="46.03677" lon="3.71386">
        <ele>608.79</ele>
        <time>2015-04-22T10:50:42Z</time>
      </trkpt>
      <trkpt lat="46.0366" lon="3.71397">
        <ele>609.31</ele>
        <time>2015-04-22T10:50:48Z</time>
      </trkpt>
      <trkpt lat="46.03642" lon="3.71385">
        <ele>609.15</ele>
        <time>2015-04-22T10:50:56Z</time>
      </trkpt>
      <trkpt lat="46.03628" lon="3.71367">
        <ele>609.55</ele>
        <time>2015-04-22T10:51:04Z</time>
      </trkpt>
      <trkpt lat="46.03613" lon="3.71349">
        <ele>611.78</ele>
        <time>2015-04-22T10:51:13Z</time>
      </trkpt>
      <trkpt lat="46.03597" lon="3.71332">
        <ele>614.04</ele>
        <time>2015-04-22T10:51:22Z</time>
      </trkpt>
      <trkpt lat="46.03584" lon="3.71311">
        <ele>615.43</ele>
        <time>2015-04-22T10:51:32Z</time>
      </trkpt>
      <trkpt lat="46.03575" lon="3.71287">
        <ele>618.89</ele>
        <time>2015-04-22T10:51:42Z</time>
      </trkpt>
      <trkpt lat="46.03567" lon="3.71262">
        <ele>619.55</ele>
        <time>2015-04-22T10:51:51Z</time>
      </trkpt>
      <trkpt lat="46.0356" lon="3.71235">
        <ele>621.51</ele>
        <time>2015-04-22T10:52:00Z</time>
      </trkpt>
      <trkpt lat="46.03556" lon="3.7121">
        <ele>622.52</ele>
        <time>2015-04-22T10:52:08Z</time>
      </trkpt>
      <trkpt lat="46.03558" lon="3.71184">
        <ele>624.27</ele>
        <time>2015-04-22T10:52:16Z</time>
      </trkpt>
      <trkpt lat="46.03568" lon="3.71162">
        <ele>626.97</ele>
        <time>2015-04-22T10:52:24Z</time>
      </trkpt>
      <trkpt lat="46.0358" lon="3.71142">
        <ele>628.52</ele>
        <time>2015-04-22T10:52:32Z</time>
      </trkpt>
      <trkpt lat="46.03589" lon="3.71118">
        <ele>630.05</ele>
        <time>2015-04-22T10:52:40Z</time>
      </trkpt>
      <trkpt lat="46.03591" lon="3.71091">
        <ele>631.3</ele>
        <time>2015-04-22T10:52:48Z</time>
      </trkpt>
      <trkpt lat="46.03594" lon="3.71063">
        <ele>632.54</ele>
        <time>2015-04-22T10:52:56Z</time>
      </trkpt>
      <trkpt lat="46.03591" lon="3.71035">
        <ele>632.55</ele>
        <time>2015-04-22T10:53:04Z</time>
      </trkpt>
      <trkpt lat="46.03588" lon="3.71006">
        <ele>634.1</ele>
        <time>2015-04-22T10:53:11Z</time>
      </trkpt>
      <trkpt lat="46.03585" lon="3.70978">
        <ele>636.29</ele>
        <time>2015-04-22T10:53:18Z</time>
      </trkpt>
      <trkpt lat="46.03579" lon="3.70953">
        <ele>637.29</ele>
        <time>2015-04-22T10:53:25Z</time>
      </trkpt>
      <trkpt lat="46.03561" lon="3.70952">
        <ele>638.05</ele>
        <time>2015-04-22T10:53:33Z</time>
      </trkpt>
      <trkpt lat="46.03541" lon="3.70957">
        <ele>637.58</ele>
        <time>2015-04-22T10:53:40Z</time>
      </trkpt>
      <trkpt lat="46.03521" lon="3.7096">
        <ele>636.8</ele>
        <time>2015-04-22T10:53:47Z</time>
      </trkpt>
      <trkpt lat="46.03502" lon="3.70963">
        <ele>636.56</ele>
        <time>2015-04-22T10:53:53Z</time>
      </trkpt>
      <trkpt lat="46.03486" lon="3.70981">
        <ele>634.17</ele>
        <time>2015-04-22T10:54:39Z</time>
      </trkpt>
      <trkpt lat="46.03466" lon="3.70998">
        <ele>632.84</ele>
        <time>2015-04-22T10:54:43Z</time>
      </trkpt>
      <trkpt lat="46.03451" lon="3.71015">
        <ele>630.96</ele>
        <time>2015-04-22T10:54:46Z</time>
      </trkpt>
      <trkpt lat="46.03436" lon="3.71035">
        <ele>628.48</ele>
        <time>2015-04-22T10:54:49Z</time>
      </trkpt>
      <trkpt lat="46.03415" lon="3.71054">
        <ele>626.42</ele>
        <time>2015-04-22T10:54:52Z</time>
      </trkpt>
      <trkpt lat="46.034" lon="3.7108">
        <ele>623.41</ele>
        <time>2015-04-22T10:54:55Z</time>
      </trkpt>
      <trkpt lat="46.03396" lon="3.71116">
        <ele>621.29</ele>
        <time>2015-04-22T10:54:58Z</time>
      </trkpt>
      <trkpt lat="46.03397" lon="3.71144">
        <ele>619.49</ele>
        <time>2015-04-22T10:55:00Z</time>
      </trkpt>
      <trkpt lat="46.03402" lon="3.71169">
        <ele>616.79</ele>
        <time>2015-04-22T10:55:02Z</time>
      </trkpt>
      <trkpt lat="46.03411" lon="3.71195">
        <ele>614.08</ele>
        <time>2015-04-22T10:55:05Z</time>
      </trkpt>
      <trkpt lat="46.03408" lon="3.71223">
        <ele>612.15</ele>
        <time>2015-04-22T10:55:09Z</time>
      </trkpt>
      <trkpt lat="46.03389" lon="3.71226">
        <ele>610.25</ele>
        <time>2015-04-22T10:55:12Z</time>
      </trkpt>
      <trkpt lat="46.03369" lon="3.71227">
        <ele>608.89</ele>
        <time>2015-04-22T10:55:15Z</time>
      </trkpt>
      <trkpt lat="46.03348" lon="3.71227">
        <ele>606.1</ele>
        <time>2015-04-22T10:55:18Z</time>
      </trkpt>
      <trkpt lat="46.03323" lon="3.71229">
        <ele>603.5</ele>
        <time>2015-04-22T10:55:21Z</time>
      </trkpt>
      <trkpt lat="46.03298" lon="3.71232">
        <ele>602.17</ele>
        <time>2015-04-22T10:55:24Z</time>
      </trkpt>
      <trkpt lat="46.03276" lon="3.71234">
        <ele>600.88</ele>
        <time>2015-04-22T10:55:27Z</time>
      </trkpt>
      <trkpt lat="46.03252" lon="3.7124">
        <ele>598.09</ele>
        <time>2015-04-22T10:55:30Z</time>
      </trkpt>
      <trkpt lat="46.03228" lon="3.71252">
        <ele>596.25</ele>
        <time>2015-04-22T10:55:33Z</time>
      </trkpt>
      <trkpt lat="46.03211" lon="3.7126">
        <ele>594.98</ele>
        <time>2015-04-22T10:55:35Z</time>
      </trkpt>
      <trkpt lat="46.03187" lon="3.71272">
        <ele>592.98</ele>
        <time>2015-04-22T10:55:38Z</time>
      </trkpt>
      <trkpt lat="46.03162" lon="3.71283">
        <ele>591.73</ele>
        <time>2015-04-22T10:55:41Z</time>
      </trkpt>
      <trkpt lat="46.03145" lon="3.71294">
        <ele>590.83</ele>
        <time>2015-04-22T10:55:44Z</time>
      </trkpt>
      <trkpt lat="46.03133" lon="3.71315">
        <ele>589.21</ele>
        <time>2015-04-22T10:55:47Z</time>
      </trkpt>
      <trkpt lat="46.03129" lon="3.71342">
        <ele>587.05</ele>
        <time>2015-04-22T10:56:11Z</time>
      </trkpt>
      <trkpt lat="46.03131" lon="3.71371">
        <ele>584.72</ele>
        <time>2015-04-22T10:56:16Z</time>
      </trkpt>
      <trkpt lat="46.03136" lon="3.71397">
        <ele>583.32</ele>
        <time>2015-04-22T10:56:19Z</time>
      </trkpt>
      <trkpt lat="46.03142" lon="3.71428">
        <ele>581.77</ele>
        <time>2015-04-22T10:56:22Z</time>
      </trkpt>
      <trkpt lat="46.03147" lon="3.71461">
        <ele>580.21</ele>
        <time>2015-04-22T10:56:25Z</time>
      </trkpt>
      <trkpt lat="46.03153" lon="3.71492">
        <ele>578.88</ele>
        <time>2015-04-22T10:56:28Z</time>
      </trkpt>
      <trkpt lat="46.03163" lon="3.71516">
        <ele>576.97</ele>
        <time>2015-04-22T10:56:31Z</time>
      </trkpt>
      <trkpt lat="46.03167" lon="3.71542">
        <ele>575.2</ele>
        <time>2015-04-22T10:56:35Z</time>
      </trkpt>
      <trkpt lat="46.03148" lon="3.71552">
        <ele>572.89</ele>
        <time>2015-04-22T10:56:40Z</time>
      </trkpt>
      <trkpt lat="46.03125" lon="3.71553">
        <ele>572.51</ele>
        <time>2015-04-22T10:56:44Z</time>
      </trkpt>
      <trkpt lat="46.03105" lon="3.71552">
        <ele>571.8</ele>
        <time>2015-04-22T10:56:48Z</time>
      </trkpt>
      <trkpt lat="46.03083" lon="3.71551">
        <ele>570.81</ele>
        <time>2015-04-22T10:56:53Z</time>
      </trkpt>
      <trkpt lat="46.0306" lon="3.71546">
        <ele>568.94</ele>
        <time>2015-04-22T10:56:57Z</time>
      </trkpt>
      <trkpt lat="46.03041" lon="3.71546">
        <ele>569.35</ele>
        <time>2015-04-22T10:57:00Z</time>
      </trkpt>
      <trkpt lat="46.03019" lon="3.71538">
        <ele>568.29</ele>
        <time>2015-04-22T10:57:04Z</time>
      </trkpt>
      <trkpt lat="46.03002" lon="3.71519">
        <ele>566.27</ele>
        <time>2015-04-22T10:57:07Z</time>
      </trkpt>
      <trkpt lat="46.02982" lon="3.71497">
        <ele>564.89</ele>
        <time>2015-04-22T10:57:10Z</time>
      </trkpt>
      <trkpt lat="46.02968" lon="3.71479">
        <ele>564.6</ele>
        <time>2015-04-22T10:57:13Z</time>
      </trkpt>
      <trkpt lat="46.02962" lon="3.71452">
        <ele>563.31</ele>
        <time>2015-04-22T10:57:16Z</time>
      </trkpt>
      <trkpt lat="46.02943" lon="3.71458">
        <ele>564.08</ele>
        <time>2015-04-22T10:57:21Z</time>
      </trkpt>
      <trkpt lat="46.02928" lon="3.71475">
        <ele>566.1</ele>
        <time>2015-04-22T10:57:30Z</time>
      </trkpt>
      <trkpt lat="46.02917" lon="3.71497">
        <ele>569.58</ele>
        <time>2015-04-22T10:57:39Z</time>
      </trkpt>
      <trkpt lat="46.02919" lon="3.71523">
        <ele>569.55</ele>
        <time>2015-04-22T10:57:48Z</time>
      </trkpt>
      <trkpt lat="46.02917" lon="3.7155">
        <ele>571.18</ele>
        <time>2015-04-22T10:57:58Z</time>
      </trkpt>
      <trkpt lat="46.02911" lon="3.71575">
        <ele>571.74</ele>
        <time>2015-04-22T10:58:05Z</time>
      </trkpt>
      <trkpt lat="46.02895" lon="3.71597">
        <ele>570.68</ele>
        <time>2015-04-22T10:58:11Z</time>
      </trkpt>
      <trkpt lat="46.02877" lon="3.71607">
        <ele>569.19</ele>
        <time>2015-04-22T10:58:14Z</time>
      </trkpt>
      <trkpt lat="46.02858" lon="3.71617">
        <ele>566.63</ele>
        <time>2015-04-22T10:58:17Z</time>
      </trkpt>
      <trkpt lat="46.02837" lon="3.71625">
        <ele>564.94</ele>
        <time>2015-04-22T10:58:20Z</time>
      </trkpt>
      <trkpt lat="46.02815" lon="3.7163">
        <ele>565.08</ele>
        <time>2015-04-22T10:58:24Z</time>
      </trkpt>
      <trkpt lat="46.02796" lon="3.71636">
        <ele>565.36</ele>
        <time>2015-04-22T10:58:30Z</time>
      </trkpt>
      <trkpt lat="46.0278" lon="3.71651">
        <ele>565.92</ele>
        <time>2015-04-22T10:58:36Z</time>
      </trkpt>
      <trkpt lat="46.02778" lon="3.7168">
        <ele>566.58</ele>
        <time>2015-04-22T10:58:43Z</time>
      </trkpt>
      <trkpt lat="46.02793" lon="3.717">
        <ele>566.8</ele>
        <time>2015-04-22T10:58:49Z</time>
      </trkpt>
      <trkpt lat="46.02812" lon="3.7171">
        <ele>569.97</ele>
        <time>2015-04-22T10:58:56Z</time>
      </trkpt>
      <trkpt lat="46.02828" lon="3.71723">
        <ele>571.92</ele>
        <time>2015-04-22T10:59:03Z</time>
      </trkpt>
      <trkpt lat="46.0284" lon="3.71742">
        <ele>573.2</ele>
        <time>2015-04-22T10:59:10Z</time>
      </trkpt>
      <trkpt lat="46.0285" lon="3.71768">
        <ele>573.42</ele>
        <time>2015-04-22T10:59:18Z</time>
      </trkpt>
      <trkpt lat="46.02859" lon="3.71793">
        <ele>576.76</ele>
        <time>2015-04-22T10:59:26Z</time>
      </trkpt>
      <trkpt lat="46.02862" lon="3.7182">
        <ele>579.49</ele>
        <time>2015-04-22T10:59:36Z</time>
      </trkpt>
      <trkpt lat="46.02861" lon="3.71847">
        <ele>581.49</ele>
        <time>2015-04-22T10:59:47Z</time>
      </trkpt>
      <trkpt lat="46.02868" lon="3.71873">
        <ele>583.52</ele>
        <time>2015-04-22T10:59:57Z</time>
      </trkpt>
      <trkpt lat="46.02882" lon="3.71891">
        <ele>585.51</ele>
        <time>2015-04-22T11:00:06Z</time>
      </trkpt>
      <trkpt lat="46.02898" lon="3.71907">
        <ele>587.43</ele>
        <time>2015-04-22T11:00:15Z</time>
      </trkpt>
      <trkpt lat="46.02911" lon="3.71927">
        <ele>589.3</ele>
        <time>2015-04-22T11:00:24Z</time>
      </trkpt>
      <trkpt lat="46.02921" lon="3.7195">
        <ele>590.54</ele>
        <time>2015-04-22T11:00:33Z</time>
      </trkpt>
      <trkpt lat="46.02931" lon="3.71973">
        <ele>592.48</ele>
        <time>2015-04-22T11:00:41Z</time>
      </trkpt>
      <trkpt lat="46.0294" lon="3.71999">
        <ele>592.3</ele>
        <time>2015-04-22T11:00:50Z</time>
      </trkpt>
      <trkpt lat="46.02939" lon="3.72028">
        <ele>592.55</ele>
        <time>2015-04-22T11:00:58Z</time>
      </trkpt>
      <trkpt lat="46.02936" lon="3.72054">
        <ele>592.55</ele>
        <time>2015-04-22T11:01:04Z</time>
      </trkpt>
      <trkpt lat="46.02943" lon="3.72079">
        <ele>592.96</ele>
        <time>2015-04-22T11:01:11Z</time>
      </trkpt>
      <trkpt lat="46.02959" lon="3.72092">
        <ele>593.54</ele>
        <time>2015-04-22T11:01:17Z</time>
      </trkpt>
      <trkpt lat="46.02977" lon="3.72103">
        <ele>594.05</ele>
        <time>2015-04-22T11:01:24Z</time>
      </trkpt>
      <trkpt lat="46.02992" lon="3.7212">
        <ele>595.5</ele>
        <time>2015-04-22T11:01:32Z</time>
      </trkpt>
      <trkpt lat="46.02995" lon="3.72146">
        <ele>597.92</ele>
        <time>2015-04-22T11:01:41Z</time>
      </trkpt>
      <trkpt lat="46.02979" lon="3.7216">
        <ele>601.28</ele>
        <time>2015-04-22T11:01:49Z</time>
      </trkpt>
      <trkpt lat="46.02968" lon="3.7218">
        <ele>602.05</ele>
        <time>2015-04-22T11:01:57Z</time>
      </trkpt>
      <trkpt lat="46.02955" lon="3.72199">
        <ele>603.49</ele>
        <time>2015-04-22T11:02:04Z</time>
      </trkpt>
      <trkpt lat="46.02945" lon="3.72222">
        <ele>601.82</ele>
        <time>2015-04-22T11:02:24Z</time>
      </trkpt>
      <trkpt lat="46.02941" lon="3.72254">
        <ele>599.37</ele>
        <time>2015-04-22T11:02:29Z</time>
      </trkpt>
      <trkpt lat="46.0294" lon="3.72284">
        <ele>596.48</ele>
        <time>2015-04-22T11:02:33Z</time>
      </trkpt>
      <trkpt lat="46.02937" lon="3.72314">
        <ele>595.17</ele>
        <time>2015-04-22T11:02:36Z</time>
      </trkpt>
      <trkpt lat="46.02935" lon="3.72349">
        <ele>593.38</ele>
        <time>2015-04-22T11:02:39Z</time>
      </trkpt>
      <trkpt lat="46.02934" lon="3.72376">
        <ele>591.16</ele>
        <time>2015-04-22T11:02:42Z</time>
      </trkpt>
      <trkpt lat="46.02933" lon="3.72408">
        <ele>587.78</ele>
        <time>2015-04-22T11:02:46Z</time>
      </trkpt>
      <trkpt lat="46.02936" lon="3.72439">
        <ele>585.46</ele>
        <time>2015-04-22T11:02:49Z</time>
      </trkpt>
      <trkpt lat="46.02937" lon="3.72471">
        <ele>581.48</ele>
        <time>2015-04-22T11:02:53Z</time>
      </trkpt>
      <trkpt lat="46.02935" lon="3.725">
        <ele>578.3</ele>
        <time>2015-04-22T11:02:57Z</time>
      </trkpt>
      <trkpt lat="46.0293" lon="3.72528">
        <ele>575.41</ele>
        <time>2015-04-22T11:03:01Z</time>
      </trkpt>
      <trkpt lat="46.02922" lon="3.72559">
        <ele>572.48</ele>
        <time>2015-04-22T11:03:05Z</time>
      </trkpt>
      <trkpt lat="46.02917" lon="3.7259">
        <ele>569.42</ele>
        <time>2015-04-22T11:03:09Z</time>
      </trkpt>
      <trkpt lat="46.02895" lon="3.72599">
        <ele>566.61</ele>
        <time>2015-04-22T11:03:13Z</time>
      </trkpt>
      <trkpt lat="46.02882" lon="3.72621">
        <ele>563.58</ele>
        <time>2015-04-22T11:03:20Z</time>
      </trkpt>
      <trkpt lat="46.02893" lon="3.72642">
        <ele>560.93</ele>
        <time>2015-04-22T11:03:23Z</time>
      </trkpt>
      <trkpt lat="46.02912" lon="3.72666">
        <ele>557.98</ele>
        <time>2015-04-22T11:03:26Z</time>
      </trkpt>
      <trkpt lat="46.02929" lon="3.727">
        <ele>555.48</ele>
        <time>2015-04-22T11:03:29Z</time>
      </trkpt>
      <trkpt lat="46.02943" lon="3.72723">
        <ele>554.28</ele>
        <time>2015-04-22T11:03:31Z</time>
      </trkpt>
      <trkpt lat="46.02954" lon="3.72745">
        <ele>552.02</ele>
        <time>2015-04-22T11:03:34Z</time>
      </trkpt>
      <trkpt lat="46.02958" lon="3.72771">
        <ele>550.23</ele>
        <time>2015-04-22T11:04:01Z</time>
      </trkpt>
      <trkpt lat="46.02961" lon="3.72797">
        <ele>555.08</ele>
        <time>2015-04-22T11:04:26Z</time>
      </trkpt>
      <trkpt lat="46.02952" lon="3.7282">
        <ele>559.34</ele>
        <time>2015-04-22T11:04:58Z</time>
      </trkpt>
      <trkpt lat="46.02935" lon="3.72831">
        <ele>564.53</ele>
        <time>2015-04-22T11:05:24Z</time>
      </trkpt>
      <trkpt lat="46.02919" lon="3.72843">
        <ele>566.15</ele>
        <time>2015-04-22T11:05:43Z</time>
      </trkpt>
      <trkpt lat="46.02901" lon="3.72846">
        <ele>567.98</ele>
        <time>2015-04-22T11:06:06Z</time>
      </trkpt>
      <trkpt lat="46.02882" lon="3.7285">
        <ele>574.07</ele>
        <time>2015-04-22T11:06:34Z</time>
      </trkpt>
      <trkpt lat="46.02864" lon="3.72853">
        <ele>579.84</ele>
        <time>2015-04-22T11:06:55Z</time>
      </trkpt>
      <trkpt lat="46.02845" lon="3.72853">
        <ele>577.09</ele>
        <time>2015-04-22T11:07:10Z</time>
      </trkpt>
      <trkpt lat="46.02832" lon="3.72871">
        <ele>581.66</ele>
        <time>2015-04-22T11:07:49Z</time>
      </trkpt>
      <trkpt lat="46.02827" lon="3.72896">
        <ele>583.3</ele>
        <time>2015-04-22T11:11:02Z</time>
      </trkpt>
      <trkpt lat="46.02819" lon="3.7292">
        <ele>589.3</ele>
        <time>2015-04-22T11:11:26Z</time>
      </trkpt>
      <trkpt lat="46.02809" lon="3.72942">
        <ele>587.94</ele>
        <time>2015-04-22T11:13:49Z</time>
      </trkpt>
      <trkpt lat="46.02795" lon="3.72961">
        <ele>593.02</ele>
        <time>2015-04-22T11:14:05Z</time>
      </trkpt>
      <trkpt lat="46.02782" lon="3.72979">
        <ele>593.77</ele>
        <time>2015-04-22T11:14:20Z</time>
      </trkpt>
      <trkpt lat="46.02768" lon="3.72997">
        <ele>593.3</ele>
        <time>2015-04-22T11:14:48Z</time>
      </trkpt>
      <trkpt lat="46.02758" lon="3.73019">
        <ele>592.58</ele>
        <time>2015-04-22T11:15:01Z</time>
      </trkpt>
      <trkpt lat="46.02746" lon="3.73041">
        <ele>593.99</ele>
        <time>2015-04-22T11:15:28Z</time>
      </trkpt>
      <trkpt lat="46.02749" lon="3.73067">
        <ele>593.69</ele>
        <time>2015-04-22T11:15:51Z</time>
      </trkpt>
      <trkpt lat="46.02735" lon="3.7305">
        <ele>595.3</ele>
        <time>2015-04-22T11:17:37Z</time>
      </trkpt>
      <trkpt lat="46.02716" lon="3.73048">
        <ele>598.42</ele>
        <time>2015-04-22T11:17:47Z</time>
      </trkpt>
      <trkpt lat="46.02697" lon="3.73049">
        <ele>600.42</ele>
        <time>2015-04-22T11:17:58Z</time>
      </trkpt>
      <trkpt lat="46.02677" lon="3.73051">
        <ele>602.88</ele>
        <time>2015-04-22T11:18:09Z</time>
      </trkpt>
      <trkpt lat="46.02659" lon="3.73053">
        <ele>604.49</ele>
        <time>2015-04-22T11:18:21Z</time>
      </trkpt>
      <trkpt lat="46.0264" lon="3.73057">
        <ele>606.49</ele>
        <time>2015-04-22T11:18:32Z</time>
      </trkpt>
      <trkpt lat="46.02621" lon="3.73058">
        <ele>607.51</ele>
        <time>2015-04-22T11:18:42Z</time>
      </trkpt>
      <trkpt lat="46.02603" lon="3.73055">
        <ele>609.62</ele>
        <time>2015-04-22T11:19:11Z</time>
      </trkpt>
      <trkpt lat="46.02585" lon="3.73046">
        <ele>609.8</ele>
        <time>2015-04-22T11:19:19Z</time>
      </trkpt>
      <trkpt lat="46.02567" lon="3.73036">
        <ele>609.55</ele>
        <time>2015-04-22T11:19:26Z</time>
      </trkpt>
      <trkpt lat="46.02551" lon="3.73022">
        <ele>609.55</ele>
        <time>2015-04-22T11:19:32Z</time>
      </trkpt>
      <trkpt lat="46.02537" lon="3.73004">
        <ele>610.54</ele>
        <time>2015-04-22T11:19:39Z</time>
      </trkpt>
      <trkpt lat="46.02527" lon="3.72981">
        <ele>606.72</ele>
        <time>2015-04-22T11:19:48Z</time>
      </trkpt>
      <trkpt lat="46.02517" lon="3.72955">
        <ele>605.81</ele>
        <time>2015-04-22T11:19:53Z</time>
      </trkpt>
      <trkpt lat="46.02506" lon="3.72927">
        <ele>605.56</ele>
        <time>2015-04-22T11:19:58Z</time>
      </trkpt>
      <trkpt lat="46.02494" lon="3.72904">
        <ele>604.18</ele>
        <time>2015-04-22T11:20:03Z</time>
      </trkpt>
      <trkpt lat="46.02482" lon="3.72885">
        <ele>604.32</ele>
        <time>2015-04-22T11:20:08Z</time>
      </trkpt>
      <trkpt lat="46.02466" lon="3.72871">
        <ele>606.33</ele>
        <time>2015-04-22T11:20:14Z</time>
      </trkpt>
      <trkpt lat="46.02448" lon="3.7286">
        <ele>608.17</ele>
        <time>2015-04-22T11:20:21Z</time>
      </trkpt>
      <trkpt lat="46.0243" lon="3.7285">
        <ele>607.67</ele>
        <time>2015-04-22T11:20:28Z</time>
      </trkpt>
      <trkpt lat="46.02411" lon="3.7284">
        <ele>609.99</ele>
        <time>2015-04-22T11:20:35Z</time>
      </trkpt>
      <trkpt lat="46.02393" lon="3.72829">
        <ele>610.53</ele>
        <time>2015-04-22T11:20:41Z</time>
      </trkpt>
      <trkpt lat="46.02374" lon="3.72819">
        <ele>609.83</ele>
        <time>2015-04-22T11:20:46Z</time>
      </trkpt>
      <trkpt lat="46.02356" lon="3.72812">
        <ele>609.81</ele>
        <time>2015-04-22T11:20:51Z</time>
      </trkpt>
      <trkpt lat="46.02338" lon="3.72806">
        <ele>609.56</ele>
        <time>2015-04-22T11:20:56Z</time>
      </trkpt>
      <trkpt lat="46.02321" lon="3.72815">
        <ele>609.18</ele>
        <time>2015-04-22T11:21:00Z</time>
      </trkpt>
      <trkpt lat="46.02304" lon="3.72833">
        <ele>609.48</ele>
        <time>2015-04-22T11:21:06Z</time>
      </trkpt>
      <trkpt lat="46.02287" lon="3.72849">
        <ele>611.74</ele>
        <time>2015-04-22T11:21:12Z</time>
      </trkpt>
      <trkpt lat="46.02271" lon="3.72861">
        <ele>612.93</ele>
        <time>2015-04-22T11:21:18Z</time>
      </trkpt>
      <trkpt lat="46.02252" lon="3.7287">
        <ele>615.27</ele>
        <time>2015-04-22T11:21:25Z</time>
      </trkpt>
      <trkpt lat="46.02236" lon="3.72886">
        <ele>614.97</ele>
        <time>2015-04-22T11:21:37Z</time>
      </trkpt>
      <trkpt lat="46.02217" lon="3.72899">
        <ele>612.88</ele>
        <time>2015-04-22T11:21:42Z</time>
      </trkpt>
      <trkpt lat="46.02198" lon="3.7291">
        <ele>610.47</ele>
        <time>2015-04-22T11:21:45Z</time>
      </trkpt>
      <trkpt lat="46.02177" lon="3.72911">
        <ele>609.42</ele>
        <time>2015-04-22T11:21:48Z</time>
      </trkpt>
      <trkpt lat="46.02158" lon="3.72901">
        <ele>608.66</ele>
        <time>2015-04-22T11:21:51Z</time>
      </trkpt>
      <trkpt lat="46.02137" lon="3.72908">
        <ele>608.56</ele>
        <time>2015-04-22T11:21:55Z</time>
      </trkpt>
      <trkpt lat="46.02123" lon="3.72926">
        <ele>607.8</ele>
        <time>2015-04-22T11:22:00Z</time>
      </trkpt>
      <trkpt lat="46.0211" lon="3.72945">
        <ele>607.56</ele>
        <time>2015-04-22T11:22:05Z</time>
      </trkpt>
      <trkpt lat="46.02093" lon="3.72956">
        <ele>606.58</ele>
        <time>2015-04-22T11:22:10Z</time>
      </trkpt>
      <trkpt lat="46.02074" lon="3.72965">
        <ele>606.68</ele>
        <time>2015-04-22T11:22:16Z</time>
      </trkpt>
      <trkpt lat="46.02058" lon="3.72983">
        <ele>606.06</ele>
        <time>2015-04-22T11:22:21Z</time>
      </trkpt>
      <trkpt lat="46.02048" lon="3.73009">
        <ele>605.57</ele>
        <time>2015-04-22T11:22:26Z</time>
      </trkpt>
      <trkpt lat="46.02042" lon="3.73036">
        <ele>605.55</ele>
        <time>2015-04-22T11:22:30Z</time>
      </trkpt>
      <trkpt lat="46.02035" lon="3.73063">
        <ele>604.8</ele>
        <time>2015-04-22T11:22:34Z</time>
      </trkpt>
      <trkpt lat="46.02029" lon="3.73091">
        <ele>604.32</ele>
        <time>2015-04-22T11:22:38Z</time>
      </trkpt>
      <trkpt lat="46.02024" lon="3.73122">
        <ele>604.54</ele>
        <time>2015-04-22T11:22:42Z</time>
      </trkpt>
      <trkpt lat="46.02024" lon="3.73151">
        <ele>604.55</ele>
        <time>2015-04-22T11:22:46Z</time>
      </trkpt>
      <trkpt lat="46.02023" lon="3.73184">
        <ele>605.49</ele>
        <time>2015-04-22T11:22:51Z</time>
      </trkpt>
      <trkpt lat="46.02021" lon="3.73213">
        <ele>605.17</ele>
        <time>2015-04-22T11:22:55Z</time>
      </trkpt>
      <trkpt lat="46.02019" lon="3.73239">
        <ele>604.59</ele>
        <time>2015-04-22T11:22:59Z</time>
      </trkpt>
      <trkpt lat="46.02002" lon="3.73255">
        <ele>602.59</ele>
        <time>2015-04-22T11:23:06Z</time>
      </trkpt>
      <trkpt lat="46.01983" lon="3.73258">
        <ele>602.55</ele>
        <time>2015-04-22T11:23:11Z</time>
      </trkpt>
      <trkpt lat="46.01963" lon="3.73261">
        <ele>602.55</ele>
        <time>2015-04-22T11:23:16Z</time>
      </trkpt>
      <trkpt lat="46.01944" lon="3.73267">
        <ele>602.55</ele>
        <time>2015-04-22T11:23:21Z</time>
      </trkpt>
      <trkpt lat="46.01924" lon="3.73276">
        <ele>602.55</ele>
        <time>2015-04-22T11:23:26Z</time>
      </trkpt>
      <trkpt lat="46.01906" lon="3.73286">
        <ele>602.8</ele>
        <time>2015-04-22T11:23:30Z</time>
      </trkpt>
      <trkpt lat="46.01888" lon="3.73294">
        <ele>601.69</ele>
        <time>2015-04-22T11:23:34Z</time>
      </trkpt>
      <trkpt lat="46.01869" lon="3.73287">
        <ele>601.56</ele>
        <time>2015-04-22T11:23:38Z</time>
      </trkpt>
      <trkpt lat="46.01856" lon="3.73267">
        <ele>600.68</ele>
        <time>2015-04-22T11:23:42Z</time>
      </trkpt>
      <trkpt lat="46.01851" lon="3.73242">
        <ele>599.94</ele>
        <time>2015-04-22T11:23:46Z</time>
      </trkpt>
      <trkpt lat="46.01852" lon="3.73214">
        <ele>598.7</ele>
        <time>2015-04-22T11:23:50Z</time>
      </trkpt>
      <trkpt lat="46.01857" lon="3.73183">
        <ele>597.81</ele>
        <time>2015-04-22T11:23:54Z</time>
      </trkpt>
      <trkpt lat="46.01862" lon="3.73155">
        <ele>597.07</ele>
        <time>2015-04-22T11:23:58Z</time>
      </trkpt>
      <trkpt lat="46.01871" lon="3.73125">
        <ele>594.96</ele>
        <time>2015-04-22T11:24:02Z</time>
      </trkpt>
      <trkpt lat="46.0188" lon="3.73093">
        <ele>593.02</ele>
        <time>2015-04-22T11:24:06Z</time>
      </trkpt>
      <trkpt lat="46.01888" lon="3.73068">
        <ele>593.36</ele>
        <time>2015-04-22T11:24:09Z</time>
      </trkpt>
      <trkpt lat="46.01894" lon="3.73044">
        <ele>593.6</ele>
        <time>2015-04-22T11:24:13Z</time>
      </trkpt>
      <trkpt lat="46.01896" lon="3.73017">
        <ele>594.18</ele>
        <time>2015-04-22T11:24:17Z</time>
      </trkpt>
      <trkpt lat="46.01878" lon="3.73009">
        <ele>595.14</ele>
        <time>2015-04-22T11:24:22Z</time>
      </trkpt>
      <trkpt lat="46.01857" lon="3.73012">
        <ele>593.16</ele>
        <time>2015-04-22T11:24:28Z</time>
      </trkpt>
      <trkpt lat="46.01836" lon="3.73008">
        <ele>596.72</ele>
        <time>2015-04-22T11:24:34Z</time>
      </trkpt>
      <trkpt lat="46.01818" lon="3.73013">
        <ele>599</ele>
        <time>2015-04-22T11:24:39Z</time>
      </trkpt>
      <trkpt lat="46.01802" lon="3.73023">
        <ele>601.65</ele>
        <time>2015-04-22T11:24:45Z</time>
      </trkpt>
      <trkpt lat="46.01783" lon="3.73036">
        <ele>603.86</ele>
        <time>2015-04-22T11:24:53Z</time>
      </trkpt>
      <trkpt lat="46.01765" lon="3.73042">
        <ele>605.5</ele>
        <time>2015-04-22T11:25:02Z</time>
      </trkpt>
      <trkpt lat="46.0175" lon="3.73059">
        <ele>607.88</ele>
        <time>2015-04-22T11:25:11Z</time>
      </trkpt>
      <trkpt lat="46.01739" lon="3.73081">
        <ele>613.21</ele>
        <time>2015-04-22T11:25:21Z</time>
      </trkpt>
      <trkpt lat="46.01727" lon="3.73102">
        <ele>608.75</ele>
        <time>2015-04-22T11:25:30Z</time>
      </trkpt>
      <trkpt lat="46.01713" lon="3.73119">
        <ele>606.98</ele>
        <time>2015-04-22T11:25:37Z</time>
      </trkpt>
      <trkpt lat="46.01696" lon="3.73131">
        <ele>607.02</ele>
        <time>2015-04-22T11:25:45Z</time>
      </trkpt>
      <trkpt lat="46.01678" lon="3.73141">
        <ele>607.48</ele>
        <time>2015-04-22T11:25:51Z</time>
      </trkpt>
      <trkpt lat="46.01659" lon="3.73146">
        <ele>607.33</ele>
        <time>2015-04-22T11:25:57Z</time>
      </trkpt>
      <trkpt lat="46.01641" lon="3.73149">
        <ele>608.53</ele>
        <time>2015-04-22T11:26:03Z</time>
      </trkpt>
      <trkpt lat="46.01621" lon="3.73154">
        <ele>609.49</ele>
        <time>2015-04-22T11:26:09Z</time>
      </trkpt>
      <trkpt lat="46.01601" lon="3.73162">
        <ele>606.99</ele>
        <time>2015-04-22T11:26:14Z</time>
      </trkpt>
      <trkpt lat="46.01591" lon="3.73184">
        <ele>605.71</ele>
        <time>2015-04-22T11:26:18Z</time>
      </trkpt>
      <trkpt lat="46.01585" lon="3.73209">
        <ele>605.12</ele>
        <time>2015-04-22T11:26:22Z</time>
      </trkpt>
      <trkpt lat="46.01579" lon="3.73236">
        <ele>601.93</ele>
        <time>2015-04-22T11:26:42Z</time>
      </trkpt>
      <trkpt lat="46.01569" lon="3.7326">
        <ele>601.06</ele>
        <time>2015-04-22T11:26:49Z</time>
      </trkpt>
      <trkpt lat="46.01554" lon="3.73278">
        <ele>600.07</ele>
        <time>2015-04-22T11:26:54Z</time>
      </trkpt>
      <trkpt lat="46.01532" lon="3.73293">
        <ele>596.73</ele>
        <time>2015-04-22T11:26:59Z</time>
      </trkpt>
      <trkpt lat="46.01517" lon="3.7331">
        <ele>595.13</ele>
        <time>2015-04-22T11:27:03Z</time>
      </trkpt>
      <trkpt lat="46.01499" lon="3.73323">
        <ele>591.48</ele>
        <time>2015-04-22T11:27:08Z</time>
      </trkpt>
      <trkpt lat="46.01477" lon="3.73333">
        <ele>589.46</ele>
        <time>2015-04-22T11:27:13Z</time>
      </trkpt>
      <trkpt lat="46.01461" lon="3.73348">
        <ele>589.54</ele>
        <time>2015-04-22T11:27:16Z</time>
      </trkpt>
      <trkpt lat="46.01448" lon="3.73367">
        <ele>588.68</ele>
        <time>2015-04-22T11:27:20Z</time>
      </trkpt>
      <trkpt lat="46.01431" lon="3.73383">
        <ele>586.4</ele>
        <time>2015-04-22T11:27:25Z</time>
      </trkpt>
      <trkpt lat="46.01413" lon="3.73389">
        <ele>585.61</ele>
        <time>2015-04-22T11:27:29Z</time>
      </trkpt>
      <trkpt lat="46.01397" lon="3.73405">
        <ele>584.98</ele>
        <time>2015-04-22T11:27:35Z</time>
      </trkpt>
      <trkpt lat="46.01388" lon="3.73431">
        <ele>582.85</ele>
        <time>2015-04-22T11:27:40Z</time>
      </trkpt>
      <trkpt lat="46.01385" lon="3.73461">
        <ele>582.56</ele>
        <time>2015-04-22T11:27:45Z</time>
      </trkpt>
      <trkpt lat="46.01394" lon="3.73487">
        <ele>582.28</ele>
        <time>2015-04-22T11:28:01Z</time>
      </trkpt>
      <trkpt lat="46.01404" lon="3.73509">
        <ele>583.42</ele>
        <time>2015-04-22T11:28:06Z</time>
      </trkpt>
      <trkpt lat="46.01414" lon="3.73536">
        <ele>586.25</ele>
        <time>2015-04-22T11:28:12Z</time>
      </trkpt>
      <trkpt lat="46.01422" lon="3.73564">
        <ele>588.24</ele>
        <time>2015-04-22T11:28:18Z</time>
      </trkpt>
      <trkpt lat="46.01422" lon="3.7359">
        <ele>590.28</ele>
        <time>2015-04-22T11:28:25Z</time>
      </trkpt>
      <trkpt lat="46.01421" lon="3.73619">
        <ele>591.54</ele>
        <time>2015-04-22T11:28:34Z</time>
      </trkpt>
      <trkpt lat="46.01423" lon="3.73648">
        <ele>591.55</ele>
        <time>2015-04-22T11:28:42Z</time>
      </trkpt>
      <trkpt lat="46.01425" lon="3.73676">
        <ele>591.43</ele>
        <time>2015-04-22T11:28:48Z</time>
      </trkpt>
      <trkpt lat="46.01422" lon="3.73702">
        <ele>591.55</ele>
        <time>2015-04-22T11:28:54Z</time>
      </trkpt>
      <trkpt lat="46.01414" lon="3.7373">
        <ele>591.37</ele>
        <time>2015-04-22T11:29:01Z</time>
      </trkpt>
      <trkpt lat="46.01414" lon="3.73757">
        <ele>590.6</ele>
        <time>2015-04-22T11:29:09Z</time>
      </trkpt>
      <trkpt lat="46.01411" lon="3.73786">
        <ele>593.26</ele>
        <time>2015-04-22T11:29:17Z</time>
      </trkpt>
      <trkpt lat="46.01408" lon="3.73815">
        <ele>595.99</ele>
        <time>2015-04-22T11:29:25Z</time>
      </trkpt>
      <trkpt lat="46.01405" lon="3.73843">
        <ele>596.08</ele>
        <time>2015-04-22T11:29:32Z</time>
      </trkpt>
      <trkpt lat="46.014" lon="3.73871">
        <ele>595.11</ele>
        <time>2015-04-22T11:29:38Z</time>
      </trkpt>
      <trkpt lat="46.01392" lon="3.73898">
        <ele>592.88</ele>
        <time>2015-04-22T11:29:43Z</time>
      </trkpt>
      <trkpt lat="46.01387" lon="3.73925">
        <ele>592.56</ele>
        <time>2015-04-22T11:29:48Z</time>
      </trkpt>
      <trkpt lat="46.01382" lon="3.73955">
        <ele>590.71</ele>
        <time>2015-04-22T11:29:53Z</time>
      </trkpt>
      <trkpt lat="46.0138" lon="3.73982">
        <ele>589.69</ele>
        <time>2015-04-22T11:29:57Z</time>
      </trkpt>
      <trkpt lat="46.01377" lon="3.74014">
        <ele>588.96</ele>
        <time>2015-04-22T11:30:02Z</time>
      </trkpt>
      <trkpt lat="46.01373" lon="3.74045">
        <ele>587.91</ele>
        <time>2015-04-22T11:30:07Z</time>
      </trkpt>
      <trkpt lat="46.01368" lon="3.74078">
        <ele>586.19</ele>
        <time>2015-04-22T11:30:12Z</time>
      </trkpt>
      <trkpt lat="46.01363" lon="3.74109">
        <ele>584.84</ele>
        <time>2015-04-22T11:30:16Z</time>
      </trkpt>
      <trkpt lat="46.01362" lon="3.74136">
        <ele>582.62</ele>
        <time>2015-04-22T11:30:31Z</time>
      </trkpt>
      <trkpt lat="46.01353" lon="3.74162">
        <ele>577.88</ele>
        <time>2015-04-22T11:31:04Z</time>
      </trkpt>
      <trkpt lat="46.0135" lon="3.74189">
        <ele>576.2</ele>
        <time>2015-04-22T11:31:10Z</time>
      </trkpt>
      <trkpt lat="46.01346" lon="3.74217">
        <ele>574.22</ele>
        <time>2015-04-22T11:31:14Z</time>
      </trkpt>
      <trkpt lat="46.01343" lon="3.74248">
        <ele>574.53</ele>
        <time>2015-04-22T11:31:18Z</time>
      </trkpt>
      <trkpt lat="46.0134" lon="3.74278">
        <ele>574.24</ele>
        <time>2015-04-22T11:31:23Z</time>
      </trkpt>
      <trkpt lat="46.01336" lon="3.74303">
        <ele>570.86</ele>
        <time>2015-04-22T11:31:29Z</time>
      </trkpt>
      <trkpt lat="46.0133" lon="3.74331">
        <ele>565.79</ele>
        <time>2015-04-22T11:31:36Z</time>
      </trkpt>
      <trkpt lat="46.01326" lon="3.74358">
        <ele>561.71</ele>
        <time>2015-04-22T11:31:42Z</time>
      </trkpt>
      <trkpt lat="46.01322" lon="3.74384">
        <ele>560.21</ele>
        <time>2015-04-22T11:31:48Z</time>
      </trkpt>
      <trkpt lat="46.01329" lon="3.74413">
        <ele>555.2</ele>
        <time>2015-04-22T11:31:56Z</time>
      </trkpt>
      <trkpt lat="46.01341" lon="3.74438">
        <ele>551.52</ele>
        <time>2015-04-22T11:32:02Z</time>
      </trkpt>
      <trkpt lat="46.01342" lon="3.74467">
        <ele>546.2</ele>
        <time>2015-04-22T11:32:09Z</time>
      </trkpt>
      <trkpt lat="46.01333" lon="3.74494">
        <ele>543.64</ele>
        <time>2015-04-22T11:32:15Z</time>
      </trkpt>
      <trkpt lat="46.01331" lon="3.7452">
        <ele>542.76</ele>
        <time>2015-04-22T11:32:21Z</time>
      </trkpt>
      <trkpt lat="46.01329" lon="3.74545">
        <ele>542.56</ele>
        <time>2015-04-22T11:32:32Z</time>
      </trkpt>
      <trkpt lat="46.01316" lon="3.74564">
        <ele>551.3</ele>
        <time>2015-04-22T11:32:55Z</time>
      </trkpt>
      <trkpt lat="46.01311" lon="3.74589">
        <ele>550.59</ele>
        <time>2015-04-22T11:33:28Z</time>
      </trkpt>
      <trkpt lat="46.01299" lon="3.7461">
        <ele>553.09</ele>
        <time>2015-04-22T11:33:36Z</time>
      </trkpt>
      <trkpt lat="46.0131" lon="3.74631">
        <ele>548.38</ele>
        <time>2015-04-22T11:36:59Z</time>
      </trkpt>
      <trkpt lat="46.01306" lon="3.74657">
        <ele>543.65</ele>
        <time>2015-04-22T11:37:24Z</time>
      </trkpt>
      <trkpt lat="46.01287" lon="3.74654">
        <ele>546.58</ele>
        <time>2015-04-22T11:37:35Z</time>
      </trkpt>
      <trkpt lat="46.01269" lon="3.74652">
        <ele>546.64</ele>
        <time>2015-04-22T11:37:42Z</time>
      </trkpt>
      <trkpt lat="46.0125" lon="3.74652">
        <ele>548.77</ele>
        <time>2015-04-22T11:37:49Z</time>
      </trkpt>
      <trkpt lat="46.01231" lon="3.74652">
        <ele>551</ele>
        <time>2015-04-22T11:37:56Z</time>
      </trkpt>
      <trkpt lat="46.01212" lon="3.74657">
        <ele>551.37</ele>
        <time>2015-04-22T11:38:07Z</time>
      </trkpt>
      <trkpt lat="46.01197" lon="3.74673">
        <ele>554.42</ele>
        <time>2015-04-22T11:38:19Z</time>
      </trkpt>
      <trkpt lat="46.01182" lon="3.74688">
        <ele>557.33</ele>
        <time>2015-04-22T11:38:28Z</time>
      </trkpt>
      <trkpt lat="46.01168" lon="3.74708">
        <ele>554.35</ele>
        <time>2015-04-22T11:38:37Z</time>
      </trkpt>
      <trkpt lat="46.01158" lon="3.7473">
        <ele>557.73</ele>
        <time>2015-04-22T11:38:48Z</time>
      </trkpt>
      <trkpt lat="46.01151" lon="3.74755">
        <ele>562.46</ele>
        <time>2015-04-22T11:39:02Z</time>
      </trkpt>
      <trkpt lat="46.0115" lon="3.74781">
        <ele>564.17</ele>
        <time>2015-04-22T11:39:16Z</time>
      </trkpt>
      <trkpt lat="46.01155" lon="3.74808">
        <ele>570.83</ele>
        <time>2015-04-22T11:39:29Z</time>
      </trkpt>
      <trkpt lat="46.01156" lon="3.74834">
        <ele>578.78</ele>
        <time>2015-04-22T11:39:42Z</time>
      </trkpt>
      <trkpt lat="46.01155" lon="3.74862">
        <ele>580.99</ele>
        <time>2015-04-22T11:39:55Z</time>
      </trkpt>
      <trkpt lat="46.01151" lon="3.74888">
        <ele>579.66</ele>
        <time>2015-04-22T11:40:07Z</time>
      </trkpt>
      <trkpt lat="46.01148" lon="3.74914">
        <ele>580.3</ele>
        <time>2015-04-22T11:40:18Z</time>
      </trkpt>
      <trkpt lat="46.01144" lon="3.74941">
        <ele>582.75</ele>
        <time>2015-04-22T11:40:30Z</time>
      </trkpt>
      <trkpt lat="46.01143" lon="3.74968">
        <ele>584.8</ele>
        <time>2015-04-22T11:40:43Z</time>
      </trkpt>
      <trkpt lat="46.01148" lon="3.74993">
        <ele>585.75</ele>
        <time>2015-04-22T11:40:55Z</time>
      </trkpt>
      <trkpt lat="46.0116" lon="3.75015">
        <ele>587.14</ele>
        <time>2015-04-22T11:41:30Z</time>
      </trkpt>
      <trkpt lat="46.01169" lon="3.75039">
        <ele>591.4</ele>
        <time>2015-04-22T11:41:42Z</time>
      </trkpt>
      <trkpt lat="46.0118" lon="3.75059">
        <ele>594.52</ele>
        <time>2015-04-22T11:42:06Z</time>
      </trkpt>
      <trkpt lat="46.0118" lon="3.75086">
        <ele>596.27</ele>
        <time>2015-04-22T11:42:24Z</time>
      </trkpt>
      <trkpt lat="46.01182" lon="3.75113">
        <ele>599.51</ele>
        <time>2015-04-22T11:42:46Z</time>
      </trkpt>
      <trkpt lat="46.01186" lon="3.7514">
        <ele>605.54</ele>
        <time>2015-04-22T11:43:18Z</time>
      </trkpt>
      <trkpt lat="46.01186" lon="3.75167">
        <ele>607.48</ele>
        <time>2015-04-22T11:43:29Z</time>
      </trkpt>
      <trkpt lat="46.01183" lon="3.75192">
        <ele>607.21</ele>
        <time>2015-04-22T11:43:41Z</time>
      </trkpt>
      <trkpt lat="46.01178" lon="3.75219">
        <ele>608.29</ele>
        <time>2015-04-22T11:43:54Z</time>
      </trkpt>
      <trkpt lat="46.01176" lon="3.75246">
        <ele>612.02</ele>
        <time>2015-04-22T11:44:07Z</time>
      </trkpt>
      <trkpt lat="46.01176" lon="3.75273">
        <ele>615.11</ele>
        <time>2015-04-22T11:44:21Z</time>
      </trkpt>
      <trkpt lat="46.0117" lon="3.75298">
        <ele>613.55</ele>
        <time>2015-04-22T11:44:37Z</time>
      </trkpt>
      <trkpt lat="46.01176" lon="3.75323">
        <ele>618.48</ele>
        <time>2015-04-22T11:44:49Z</time>
      </trkpt>
      <trkpt lat="46.01179" lon="3.75349">
        <ele>620.42</ele>
        <time>2015-04-22T11:45:02Z</time>
      </trkpt>
      <trkpt lat="46.01182" lon="3.75375">
        <ele>621.59</ele>
        <time>2015-04-22T11:45:13Z</time>
      </trkpt>
      <trkpt lat="46.0118" lon="3.75403">
        <ele>622.91</ele>
        <time>2015-04-22T11:45:25Z</time>
      </trkpt>
      <trkpt lat="46.01178" lon="3.7543">
        <ele>625.43</ele>
        <time>2015-04-22T11:45:37Z</time>
      </trkpt>
      <trkpt lat="46.01175" lon="3.75457">
        <ele>628.29</ele>
        <time>2015-04-22T11:45:48Z</time>
      </trkpt>
      <trkpt lat="46.01168" lon="3.75483">
        <ele>631.61</ele>
        <time>2015-04-22T11:46:00Z</time>
      </trkpt>
      <trkpt lat="46.01158" lon="3.75507">
        <ele>630.69</ele>
        <time>2015-04-22T11:46:13Z</time>
      </trkpt>
      <trkpt lat="46.01145" lon="3.75527">
        <ele>632.67</ele>
        <time>2015-04-22T11:46:23Z</time>
      </trkpt>
      <trkpt lat="46.01135" lon="3.75551">
        <ele>636.97</ele>
        <time>2015-04-22T11:46:33Z</time>
      </trkpt>
      <trkpt lat="46.01121" lon="3.75571">
        <ele>638.79</ele>
        <time>2015-04-22T11:46:45Z</time>
      </trkpt>
      <trkpt lat="46.01112" lon="3.75595">
        <ele>635.63</ele>
        <time>2015-04-22T11:46:58Z</time>
      </trkpt>
      <trkpt lat="46.01113" lon="3.75623">
        <ele>635.62</ele>
        <time>2015-04-22T11:47:02Z</time>
      </trkpt>
      <trkpt lat="46.01111" lon="3.75649">
        <ele>634.69</ele>
        <time>2015-04-22T11:47:05Z</time>
      </trkpt>
      <trkpt lat="46.0111" lon="3.75682">
        <ele>632.94</ele>
        <time>2015-04-22T11:47:08Z</time>
      </trkpt>
      <trkpt lat="46.01111" lon="3.75713">
        <ele>633.1</ele>
        <time>2015-04-22T11:47:11Z</time>
      </trkpt>
      <trkpt lat="46.0112" lon="3.75743">
        <ele>634.27</ele>
        <time>2015-04-22T11:47:15Z</time>
      </trkpt>
      <trkpt lat="46.01129" lon="3.75766">
        <ele>634.55</ele>
        <time>2015-04-22T11:47:21Z</time>
      </trkpt>
      <trkpt lat="46.01142" lon="3.75791">
        <ele>633.68</ele>
        <time>2015-04-22T11:47:27Z</time>
      </trkpt>
      <trkpt lat="46.01154" lon="3.75816">
        <ele>633.12</ele>
        <time>2015-04-22T11:47:32Z</time>
      </trkpt>
      <trkpt lat="46.01161" lon="3.75844">
        <ele>633.55</ele>
        <time>2015-04-22T11:47:38Z</time>
      </trkpt>
      <trkpt lat="46.01168" lon="3.75873">
        <ele>634.52</ele>
        <time>2015-04-22T11:47:44Z</time>
      </trkpt>
      <trkpt lat="46.01172" lon="3.759">
        <ele>635.05</ele>
        <time>2015-04-22T11:47:49Z</time>
      </trkpt>
      <trkpt lat="46.01173" lon="3.75928">
        <ele>637.26</ele>
        <time>2015-04-22T11:47:55Z</time>
      </trkpt>
      <trkpt lat="46.01174" lon="3.7596">
        <ele>638.28</ele>
        <time>2015-04-22T11:48:01Z</time>
      </trkpt>
      <trkpt lat="46.01173" lon="3.75987">
        <ele>639.51</ele>
        <time>2015-04-22T11:48:06Z</time>
      </trkpt>
      <trkpt lat="46.01172" lon="3.76016">
        <ele>641.28</ele>
        <time>2015-04-22T11:48:13Z</time>
      </trkpt>
      <trkpt lat="46.01166" lon="3.76042">
        <ele>640.99</ele>
        <time>2015-04-22T11:48:20Z</time>
      </trkpt>
      <trkpt lat="46.01154" lon="3.76067">
        <ele>640.58</ele>
        <time>2015-04-22T11:48:28Z</time>
      </trkpt>
      <trkpt lat="46.01143" lon="3.76089">
        <ele>640.55</ele>
        <time>2015-04-22T11:48:35Z</time>
      </trkpt>
      <trkpt lat="46.0113" lon="3.76111">
        <ele>641.46</ele>
        <time>2015-04-22T11:48:42Z</time>
      </trkpt>
      <trkpt lat="46.01116" lon="3.76129">
        <ele>641.58</ele>
        <time>2015-04-22T11:48:49Z</time>
      </trkpt>
      <trkpt lat="46.01103" lon="3.76146">
        <ele>640.61</ele>
        <time>2015-04-22T11:48:57Z</time>
      </trkpt>
      <trkpt lat="46.01099" lon="3.76173">
        <ele>643.01</ele>
        <time>2015-04-22T11:49:04Z</time>
      </trkpt>
      <trkpt lat="46.01095" lon="3.76199">
        <ele>644.42</ele>
        <time>2015-04-22T11:49:10Z</time>
      </trkpt>
      <trkpt lat="46.01091" lon="3.76225">
        <ele>646.52</ele>
        <time>2015-04-22T11:49:18Z</time>
      </trkpt>
      <trkpt lat="46.01085" lon="3.76252">
        <ele>651.24</ele>
        <time>2015-04-22T11:49:27Z</time>
      </trkpt>
      <trkpt lat="46.01078" lon="3.76278">
        <ele>653.49</ele>
        <time>2015-04-22T11:49:36Z</time>
      </trkpt>
      <trkpt lat="46.01064" lon="3.76296">
        <ele>654.62</ele>
        <time>2015-04-22T11:49:46Z</time>
      </trkpt>
      <trkpt lat="46.01056" lon="3.7632">
        <ele>658.36</ele>
        <time>2015-04-22T11:49:57Z</time>
      </trkpt>
      <trkpt lat="46.01063" lon="3.76344">
        <ele>659.56</ele>
        <time>2015-04-22T11:50:11Z</time>
      </trkpt>
      <trkpt lat="46.0107" lon="3.76369">
        <ele>660.52</ele>
        <time>2015-04-22T11:50:18Z</time>
      </trkpt>
      <trkpt lat="46.01073" lon="3.76397">
        <ele>661.52</ele>
        <time>2015-04-22T11:50:24Z</time>
      </trkpt>
      <trkpt lat="46.01067" lon="3.76423">
        <ele>662.54</ele>
        <time>2015-04-22T11:50:30Z</time>
      </trkpt>
      <trkpt lat="46.01054" lon="3.76442">
        <ele>661.58</ele>
        <time>2015-04-22T11:50:35Z</time>
      </trkpt>
      <trkpt lat="46.01039" lon="3.76465">
        <ele>661.3</ele>
        <time>2015-04-22T11:50:40Z</time>
      </trkpt>
      <trkpt lat="46.01035" lon="3.76492">
        <ele>660.6</ele>
        <time>2015-04-22T11:50:44Z</time>
      </trkpt>
      <trkpt lat="46.0105" lon="3.76514">
        <ele>660.62</ele>
        <time>2015-04-22T11:50:48Z</time>
      </trkpt>
      <trkpt lat="46.01071" lon="3.76523">
        <ele>661.49</ele>
        <time>2015-04-22T11:50:52Z</time>
      </trkpt>
      <trkpt lat="46.01093" lon="3.7653">
        <ele>661.55</ele>
        <time>2015-04-22T11:50:56Z</time>
      </trkpt>
      <trkpt lat="46.01115" lon="3.76538">
        <ele>661.43</ele>
        <time>2015-04-22T11:51:00Z</time>
      </trkpt>
      <trkpt lat="46.01136" lon="3.76551">
        <ele>661.17</ele>
        <time>2015-04-22T11:51:04Z</time>
      </trkpt>
      <trkpt lat="46.01156" lon="3.76568">
        <ele>660.65</ele>
        <time>2015-04-22T11:51:08Z</time>
      </trkpt>
      <trkpt lat="46.01171" lon="3.76582">
        <ele>659.19</ele>
        <time>2015-04-22T11:51:11Z</time>
      </trkpt>
      <trkpt lat="46.01188" lon="3.76595">
        <ele>657.76</ele>
        <time>2015-04-22T11:51:14Z</time>
      </trkpt>
      <trkpt lat="46.01208" lon="3.76599">
        <ele>657.58</ele>
        <time>2015-04-22T11:51:17Z</time>
      </trkpt>
      <trkpt lat="46.01226" lon="3.76591">
        <ele>656.31</ele>
        <time>2015-04-22T11:51:20Z</time>
      </trkpt>
      <trkpt lat="46.01242" lon="3.76577">
        <ele>655.15</ele>
        <time>2015-04-22T11:51:23Z</time>
      </trkpt>
      <trkpt lat="46.01259" lon="3.76564">
        <ele>654.63</ele>
        <time>2015-04-22T11:51:26Z</time>
      </trkpt>
      <trkpt lat="46.01275" lon="3.76551">
        <ele>653.81</ele>
        <time>2015-04-22T11:51:29Z</time>
      </trkpt>
      <trkpt lat="46.01295" lon="3.76537">
        <ele>652.82</ele>
        <time>2015-04-22T11:51:33Z</time>
      </trkpt>
      <trkpt lat="46.01317" lon="3.7653">
        <ele>652.57</ele>
        <time>2015-04-22T11:51:37Z</time>
      </trkpt>
      <trkpt lat="46.01339" lon="3.76536">
        <ele>651.8</ele>
        <time>2015-04-22T11:51:41Z</time>
      </trkpt>
      <trkpt lat="46.01352" lon="3.76561">
        <ele>652.32</ele>
        <time>2015-04-22T11:51:45Z</time>
      </trkpt>
      <trkpt lat="46.01356" lon="3.76592">
        <ele>652.04</ele>
        <time>2015-04-22T11:51:49Z</time>
      </trkpt>
      <trkpt lat="46.01354" lon="3.76618">
        <ele>651.61</ele>
        <time>2015-04-22T11:51:52Z</time>
      </trkpt>
      <trkpt lat="46.01358" lon="3.76651">
        <ele>650.18</ele>
        <time>2015-04-22T11:51:56Z</time>
      </trkpt>
      <trkpt lat="46.01376" lon="3.76652">
        <ele>649.63</ele>
        <time>2015-04-22T11:51:59Z</time>
      </trkpt>
      <trkpt lat="46.0139" lon="3.76632">
        <ele>649.06</ele>
        <time>2015-04-22T11:52:02Z</time>
      </trkpt>
      <trkpt lat="46.014" lon="3.76608">
        <ele>649.49</ele>
        <time>2015-04-22T11:52:05Z</time>
      </trkpt>
      <trkpt lat="46.01411" lon="3.76585">
        <ele>648.3</ele>
        <time>2015-04-22T11:52:08Z</time>
      </trkpt>
      <trkpt lat="46.01428" lon="3.76574">
        <ele>646.52</ele>
        <time>2015-04-22T11:52:11Z</time>
      </trkpt>
      <trkpt lat="46.01448" lon="3.76573">
        <ele>645.92</ele>
        <time>2015-04-22T11:52:14Z</time>
      </trkpt>
      <trkpt lat="46.01465" lon="3.76585">
        <ele>645.6</ele>
        <time>2015-04-22T11:52:17Z</time>
      </trkpt>
      <trkpt lat="46.01482" lon="3.76601">
        <ele>645.31</ele>
        <time>2015-04-22T11:52:20Z</time>
      </trkpt>
      <trkpt lat="46.015" lon="3.76609">
        <ele>646.27</ele>
        <time>2015-04-22T11:52:23Z</time>
      </trkpt>
      <trkpt lat="46.01522" lon="3.76601">
        <ele>645.14</ele>
        <time>2015-04-22T11:52:26Z</time>
      </trkpt>
      <trkpt lat="46.0154" lon="3.76587">
        <ele>643.75</ele>
        <time>2015-04-22T11:52:29Z</time>
      </trkpt>
      <trkpt lat="46.01549" lon="3.7656">
        <ele>644.83</ele>
        <time>2015-04-22T11:52:32Z</time>
      </trkpt>
      <trkpt lat="46.01546" lon="3.76527">
        <ele>645.51</ele>
        <time>2015-04-22T11:52:36Z</time>
      </trkpt>
      <trkpt lat="46.01543" lon="3.76502">
        <ele>646.42</ele>
        <time>2015-04-22T11:52:39Z</time>
      </trkpt>
      <trkpt lat="46.01543" lon="3.76467">
        <ele>646.17</ele>
        <time>2015-04-22T11:52:43Z</time>
      </trkpt>
      <trkpt lat="46.01546" lon="3.76436">
        <ele>647.15</ele>
        <time>2015-04-22T11:52:47Z</time>
      </trkpt>
      <trkpt lat="46.01553" lon="3.76404">
        <ele>648.28</ele>
        <time>2015-04-22T11:52:51Z</time>
      </trkpt>
      <trkpt lat="46.0156" lon="3.76379">
        <ele>649.27</ele>
        <time>2015-04-22T11:52:54Z</time>
      </trkpt>
      <trkpt lat="46.01567" lon="3.76355">
        <ele>649.52</ele>
        <time>2015-04-22T11:52:57Z</time>
      </trkpt>
      <trkpt lat="46.01577" lon="3.76325">
        <ele>650.43</ele>
        <time>2015-04-22T11:53:01Z</time>
      </trkpt>
      <trkpt lat="46.01589" lon="3.76299">
        <ele>651.42</ele>
        <time>2015-04-22T11:53:05Z</time>
      </trkpt>
      <trkpt lat="46.01602" lon="3.76275">
        <ele>651.54</ele>
        <time>2015-04-22T11:53:09Z</time>
      </trkpt>
      <trkpt lat="46.01619" lon="3.76253">
        <ele>650.18</ele>
        <time>2015-04-22T11:53:13Z</time>
      </trkpt>
      <trkpt lat="46.01639" lon="3.76237">
        <ele>645.72</ele>
        <time>2015-04-22T11:53:17Z</time>
      </trkpt>
      <trkpt lat="46.01655" lon="3.76225">
        <ele>644.95</ele>
        <time>2015-04-22T11:53:20Z</time>
      </trkpt>
      <trkpt lat="46.01673" lon="3.76212">
        <ele>649.35</ele>
        <time>2015-04-22T11:53:25Z</time>
      </trkpt>
      <trkpt lat="46.01688" lon="3.76195">
        <ele>658.58</ele>
        <time>2015-04-22T11:53:30Z</time>
      </trkpt>
      <trkpt lat="46.01701" lon="3.76172">
        <ele>661.46</ele>
        <time>2015-04-22T11:53:35Z</time>
      </trkpt>
      <trkpt lat="46.01692" lon="3.76149">
        <ele>661.73</ele>
        <time>2015-04-22T11:53:39Z</time>
      </trkpt>
      <trkpt lat="46.01676" lon="3.76131">
        <ele>660.63</ele>
        <time>2015-04-22T11:53:43Z</time>
      </trkpt>
      <trkpt lat="46.01665" lon="3.76109">
        <ele>659.93</ele>
        <time>2015-04-22T11:53:48Z</time>
      </trkpt>
      <trkpt lat="46.01669" lon="3.76079">
        <ele>659.22</ele>
        <time>2015-04-22T11:53:54Z</time>
      </trkpt>
      <trkpt lat="46.01678" lon="3.76054">
        <ele>656.67</ele>
        <time>2015-04-22T11:53:59Z</time>
      </trkpt>
      <trkpt lat="46.01691" lon="3.7603">
        <ele>657.43</ele>
        <time>2015-04-22T11:54:04Z</time>
      </trkpt>
      <trkpt lat="46.01704" lon="3.76012">
        <ele>655.74</ele>
        <time>2015-04-22T11:54:09Z</time>
      </trkpt>
      <trkpt lat="46.01716" lon="3.75991">
        <ele>657.12</ele>
        <time>2015-04-22T11:54:15Z</time>
      </trkpt>
      <trkpt lat="46.01729" lon="3.75966">
        <ele>659.23</ele>
        <time>2015-04-22T11:54:21Z</time>
      </trkpt>
      <trkpt lat="46.01741" lon="3.75944">
        <ele>658.48</ele>
        <time>2015-04-22T11:54:26Z</time>
      </trkpt>
      <trkpt lat="46.01756" lon="3.7593">
        <ele>655.89</ele>
        <time>2015-04-22T11:54:31Z</time>
      </trkpt>
      <trkpt lat="46.01775" lon="3.75934">
        <ele>657.69</ele>
        <time>2015-04-22T11:54:36Z</time>
      </trkpt>
      <trkpt lat="46.01786" lon="3.7596">
        <ele>660.24</ele>
        <time>2015-04-22T11:54:41Z</time>
      </trkpt>
      <trkpt lat="46.01796" lon="3.75985">
        <ele>658.42</ele>
        <time>2015-04-22T11:54:46Z</time>
      </trkpt>
      <trkpt lat="46.01807" lon="3.76009">
        <ele>659.89</ele>
        <time>2015-04-22T11:54:52Z</time>
      </trkpt>
      <trkpt lat="46.0182" lon="3.7603">
        <ele>664.57</ele>
        <time>2015-04-22T11:54:58Z</time>
      </trkpt>
      <trkpt lat="46.01834" lon="3.76049">
        <ele>669.69</ele>
        <time>2015-04-22T11:55:05Z</time>
      </trkpt>
      <trkpt lat="46.01852" lon="3.76068">
        <ele>671.49</ele>
        <time>2015-04-22T11:55:10Z</time>
      </trkpt>
      <trkpt lat="46.01871" lon="3.76078">
        <ele>671.99</ele>
        <time>2015-04-22T11:55:16Z</time>
      </trkpt>
      <trkpt lat="46.0189" lon="3.76081">
        <ele>675.02</ele>
        <time>2015-04-22T11:55:20Z</time>
      </trkpt>
      <trkpt lat="46.01911" lon="3.76085">
        <ele>674.21</ele>
        <time>2015-04-22T11:55:24Z</time>
      </trkpt>
      <trkpt lat="46.0193" lon="3.7609">
        <ele>675.59</ele>
        <time>2015-04-22T11:55:28Z</time>
      </trkpt>
      <trkpt lat="46.01948" lon="3.76095">
        <ele>680.68</ele>
        <time>2015-04-22T11:55:32Z</time>
      </trkpt>
      <trkpt lat="46.01967" lon="3.76102">
        <ele>684.98</ele>
        <time>2015-04-22T11:55:38Z</time>
      </trkpt>
      <trkpt lat="46.01989" lon="3.76098">
        <ele>685.82</ele>
        <time>2015-04-22T11:55:43Z</time>
      </trkpt>
      <trkpt lat="46.01994" lon="3.76069">
        <ele>683.13</ele>
        <time>2015-04-22T11:55:47Z</time>
      </trkpt>
      <trkpt lat="46.01981" lon="3.76041">
        <ele>682.29</ele>
        <time>2015-04-22T11:55:52Z</time>
      </trkpt>
      <trkpt lat="46.01965" lon="3.7602">
        <ele>682.47</ele>
        <time>2015-04-22T11:55:56Z</time>
      </trkpt>
      <trkpt lat="46.01947" lon="3.75998">
        <ele>674.3</ele>
        <time>2015-04-22T11:56:00Z</time>
      </trkpt>
      <trkpt lat="46.01931" lon="3.75978">
        <ele>671.72</ele>
        <time>2015-04-22T11:56:04Z</time>
      </trkpt>
      <trkpt lat="46.01921" lon="3.75954">
        <ele>673</ele>
        <time>2015-04-22T11:56:08Z</time>
      </trkpt>
      <trkpt lat="46.01919" lon="3.75928">
        <ele>672.64</ele>
        <time>2015-04-22T11:56:12Z</time>
      </trkpt>
      <trkpt lat="46.01921" lon="3.75901">
        <ele>672.38</ele>
        <time>2015-04-22T11:56:18Z</time>
      </trkpt>
      <trkpt lat="46.01924" lon="3.75871">
        <ele>673.05</ele>
        <time>2015-04-22T11:56:25Z</time>
      </trkpt>
      <trkpt lat="46.01924" lon="3.75842">
        <ele>676.01</ele>
        <time>2015-04-22T11:56:32Z</time>
      </trkpt>
      <trkpt lat="46.01928" lon="3.75813">
        <ele>677.48</ele>
        <time>2015-04-22T11:56:39Z</time>
      </trkpt>
      <trkpt lat="46.01937" lon="3.75787">
        <ele>679.17</ele>
        <time>2015-04-22T11:56:46Z</time>
      </trkpt>
      <trkpt lat="46.0195" lon="3.75768">
        <ele>677.34</ele>
        <time>2015-04-22T11:56:52Z</time>
      </trkpt>
      <trkpt lat="46.01965" lon="3.75753">
        <ele>675.24</ele>
        <time>2015-04-22T11:56:58Z</time>
      </trkpt>
      <trkpt lat="46.0198" lon="3.75732">
        <ele>676.95</ele>
        <time>2015-04-22T11:57:04Z</time>
      </trkpt>
      <trkpt lat="46.01995" lon="3.75717">
        <ele>676.28</ele>
        <time>2015-04-22T11:57:09Z</time>
      </trkpt>
      <trkpt lat="46.0201" lon="3.75697">
        <ele>673.85</ele>
        <time>2015-04-22T11:57:15Z</time>
      </trkpt>
      <trkpt lat="46.02027" lon="3.75677">
        <ele>673.06</ele>
        <time>2015-04-22T11:57:20Z</time>
      </trkpt>
      <trkpt lat="46.02044" lon="3.75662">
        <ele>672.33</ele>
        <time>2015-04-22T11:57:24Z</time>
      </trkpt>
      <trkpt lat="46.0206" lon="3.75643">
        <ele>673.48</ele>
        <time>2015-04-22T11:57:29Z</time>
      </trkpt>
      <trkpt lat="46.02074" lon="3.75626">
        <ele>674.05</ele>
        <time>2015-04-22T11:57:33Z</time>
      </trkpt>
      <trkpt lat="46.02089" lon="3.75609">
        <ele>674.46</ele>
        <time>2015-04-22T11:57:37Z</time>
      </trkpt>
      <trkpt lat="46.02106" lon="3.7559">
        <ele>675.52</ele>
        <time>2015-04-22T11:57:42Z</time>
      </trkpt>
      <trkpt lat="46.02121" lon="3.75572">
        <ele>675.8</ele>
        <time>2015-04-22T11:57:46Z</time>
      </trkpt>
      <trkpt lat="46.02136" lon="3.75556">
        <ele>676.51</ele>
        <time>2015-04-22T11:57:50Z</time>
      </trkpt>
      <trkpt lat="46.02153" lon="3.75544">
        <ele>675.8</ele>
        <time>2015-04-22T11:57:54Z</time>
      </trkpt>
      <trkpt lat="46.02173" lon="3.75541">
        <ele>674.63</ele>
        <time>2015-04-22T11:57:58Z</time>
      </trkpt>
      <trkpt lat="46.02189" lon="3.75527">
        <ele>675.5</ele>
        <time>2015-04-22T11:58:02Z</time>
      </trkpt>
      <trkpt lat="46.02193" lon="3.75495">
        <ele>676.49</ele>
        <time>2015-04-22T11:58:07Z</time>
      </trkpt>
      <trkpt lat="46.02197" lon="3.75467">
        <ele>677.49</ele>
        <time>2015-04-22T11:58:11Z</time>
      </trkpt>
      <trkpt lat="46.02199" lon="3.75437">
        <ele>677.55</ele>
        <time>2015-04-22T11:58:15Z</time>
      </trkpt>
      <trkpt lat="46.02196" lon="3.75412">
        <ele>676.8</ele>
        <time>2015-04-22T11:58:19Z</time>
      </trkpt>
      <trkpt lat="46.02192" lon="3.75384">
        <ele>677.31</ele>
        <time>2015-04-22T11:58:24Z</time>
      </trkpt>
      <trkpt lat="46.02193" lon="3.75357">
        <ele>679.65</ele>
        <time>2015-04-22T11:58:28Z</time>
      </trkpt>
      <trkpt lat="46.02196" lon="3.75329">
        <ele>684.07</ele>
        <time>2015-04-22T11:58:36Z</time>
      </trkpt>
      <trkpt lat="46.02196" lon="3.75301">
        <ele>683.17</ele>
        <time>2015-04-22T11:58:43Z</time>
      </trkpt>
      <trkpt lat="46.02178" lon="3.75287">
        <ele>682.07</ele>
        <time>2015-04-22T11:58:48Z</time>
      </trkpt>
      <trkpt lat="46.02162" lon="3.75265">
        <ele>680.21</ele>
        <time>2015-04-22T11:58:52Z</time>
      </trkpt>
      <trkpt lat="46.02157" lon="3.75238">
        <ele>677.51</ele>
        <time>2015-04-22T11:58:55Z</time>
      </trkpt>
      <trkpt lat="46.02159" lon="3.75207">
        <ele>676.8</ele>
        <time>2015-04-22T11:58:58Z</time>
      </trkpt>
      <trkpt lat="46.02173" lon="3.75183">
        <ele>676.46</ele>
        <time>2015-04-22T11:59:01Z</time>
      </trkpt>
      <trkpt lat="46.0219" lon="3.75162">
        <ele>674.92</ele>
        <time>2015-04-22T11:59:04Z</time>
      </trkpt>
      <trkpt lat="46.02204" lon="3.75139">
        <ele>674.6</ele>
        <time>2015-04-22T11:59:07Z</time>
      </trkpt>
      <trkpt lat="46.02213" lon="3.7511">
        <ele>673.81</ele>
        <time>2015-04-22T11:59:10Z</time>
      </trkpt>
      <trkpt lat="46.02218" lon="3.75079">
        <ele>673.58</ele>
        <time>2015-04-22T11:59:13Z</time>
      </trkpt>
      <trkpt lat="46.02227" lon="3.7505">
        <ele>673.06</ele>
        <time>2015-04-22T11:59:16Z</time>
      </trkpt>
      <trkpt lat="46.02246" lon="3.75029">
        <ele>671.24</ele>
        <time>2015-04-22T11:59:19Z</time>
      </trkpt>
      <trkpt lat="46.02271" lon="3.75019">
        <ele>669.76</ele>
        <time>2015-04-22T11:59:22Z</time>
      </trkpt>
      <trkpt lat="46.02297" lon="3.75018">
        <ele>668.83</ele>
        <time>2015-04-22T11:59:25Z</time>
      </trkpt>
      <trkpt lat="46.02316" lon="3.75024">
        <ele>667.87</ele>
        <time>2015-04-22T11:59:27Z</time>
      </trkpt>
      <trkpt lat="46.02334" lon="3.75033">
        <ele>666.88</ele>
        <time>2015-04-22T11:59:29Z</time>
      </trkpt>
      <trkpt lat="46.02352" lon="3.75041">
        <ele>665.39</ele>
        <time>2015-04-22T11:59:31Z</time>
      </trkpt>
      <trkpt lat="46.02369" lon="3.75053">
        <ele>663.51</ele>
        <time>2015-04-22T11:59:33Z</time>
      </trkpt>
      <trkpt lat="46.02389" lon="3.75072">
        <ele>661.3</ele>
        <time>2015-04-22T11:59:36Z</time>
      </trkpt>
      <trkpt lat="46.02405" lon="3.75089">
        <ele>659.77</ele>
        <time>2015-04-22T11:59:39Z</time>
      </trkpt>
      <trkpt lat="46.02426" lon="3.75083">
        <ele>657.09</ele>
        <time>2015-04-22T11:59:44Z</time>
      </trkpt>
      <trkpt lat="46.02437" lon="3.75059">
        <ele>655</ele>
        <time>2015-04-22T11:59:47Z</time>
      </trkpt>
      <trkpt lat="46.02445" lon="3.75034">
        <ele>655.48</ele>
        <time>2015-04-22T11:59:50Z</time>
      </trkpt>
      <trkpt lat="46.02451" lon="3.75009">
        <ele>657.31</ele>
        <time>2015-04-22T12:00:07Z</time>
      </trkpt>
      <trkpt lat="46.02445" lon="3.75038">
        <ele>654.58</ele>
        <time>2015-04-22T12:00:41Z</time>
      </trkpt>
      <trkpt lat="46.02439" lon="3.75011">
        <ele>653.65</ele>
        <time>2015-04-22T12:00:50Z</time>
      </trkpt>
      <trkpt lat="46.02445" lon="3.74982">
        <ele>653.06</ele>
        <time>2015-04-22T12:00:54Z</time>
      </trkpt>
      <trkpt lat="46.02455" lon="3.7496">
        <ele>651.37</ele>
        <time>2015-04-22T12:00:57Z</time>
      </trkpt>
      <trkpt lat="46.02466" lon="3.74934">
        <ele>649.78</ele>
        <time>2015-04-22T12:01:00Z</time>
      </trkpt>
      <trkpt lat="46.02477" lon="3.74905">
        <ele>648.33</ele>
        <time>2015-04-22T12:01:03Z</time>
      </trkpt>
      <trkpt lat="46.02489" lon="3.74875">
        <ele>646.9</ele>
        <time>2015-04-22T12:01:06Z</time>
      </trkpt>
      <trkpt lat="46.02503" lon="3.74844">
        <ele>644.72</ele>
        <time>2015-04-22T12:01:09Z</time>
      </trkpt>
      <trkpt lat="46.02513" lon="3.74819">
        <ele>643.1</ele>
        <time>2015-04-22T12:01:11Z</time>
      </trkpt>
      <trkpt lat="46.02519" lon="3.74795">
        <ele>642.19</ele>
        <time>2015-04-22T12:01:13Z</time>
      </trkpt>
      <trkpt lat="46.02521" lon="3.74755">
        <ele>640.38</ele>
        <time>2015-04-22T12:01:16Z</time>
      </trkpt>
      <trkpt lat="46.02523" lon="3.74728">
        <ele>639.76</ele>
        <time>2015-04-22T12:01:18Z</time>
      </trkpt>
      <trkpt lat="46.02524" lon="3.74701">
        <ele>638.85</ele>
        <time>2015-04-22T12:01:20Z</time>
      </trkpt>
      <trkpt lat="46.02526" lon="3.74664">
        <ele>636.97</ele>
        <time>2015-04-22T12:01:23Z</time>
      </trkpt>
      <trkpt lat="46.02528" lon="3.74634">
        <ele>635.85</ele>
        <time>2015-04-22T12:01:26Z</time>
      </trkpt>
      <trkpt lat="46.02536" lon="3.74605">
        <ele>634.63</ele>
        <time>2015-04-22T12:01:30Z</time>
      </trkpt>
      <trkpt lat="46.02548" lon="3.74586">
        <ele>633.06</ele>
        <time>2015-04-22T12:01:33Z</time>
      </trkpt>
      <trkpt lat="46.02566" lon="3.7457">
        <ele>630.49</ele>
        <time>2015-04-22T12:01:36Z</time>
      </trkpt>
      <trkpt lat="46.02583" lon="3.74556">
        <ele>627.67</ele>
        <time>2015-04-22T12:01:40Z</time>
      </trkpt>
      <trkpt lat="46.02604" lon="3.74545">
        <ele>625.84</ele>
        <time>2015-04-22T12:01:45Z</time>
      </trkpt>
      <trkpt lat="46.02621" lon="3.74533">
        <ele>626.26</ele>
        <time>2015-04-22T12:01:49Z</time>
      </trkpt>
      <trkpt lat="46.02638" lon="3.74514">
        <ele>625.1</ele>
        <time>2015-04-22T12:01:53Z</time>
      </trkpt>
      <trkpt lat="46.02656" lon="3.74494">
        <ele>621.73</ele>
        <time>2015-04-22T12:01:58Z</time>
      </trkpt>
      <trkpt lat="46.02672" lon="3.74477">
        <ele>619.9</ele>
        <time>2015-04-22T12:02:03Z</time>
      </trkpt>
      <trkpt lat="46.02684" lon="3.74454">
        <ele>617.03</ele>
        <time>2015-04-22T12:02:08Z</time>
      </trkpt>
      <trkpt lat="46.02702" lon="3.74436">
        <ele>613.91</ele>
        <time>2015-04-22T12:02:13Z</time>
      </trkpt>
      <trkpt lat="46.02719" lon="3.74422">
        <ele>612.35</ele>
        <time>2015-04-22T12:02:18Z</time>
      </trkpt>
      <trkpt lat="46.02736" lon="3.74411">
        <ele>612.17</ele>
        <time>2015-04-22T12:02:23Z</time>
      </trkpt>
      <trkpt lat="46.02753" lon="3.74399">
        <ele>607.29</ele>
        <time>2015-04-22T12:02:52Z</time>
      </trkpt>
      <trkpt lat="46.02775" lon="3.74395">
        <ele>605.66</ele>
        <time>2015-04-22T12:02:56Z</time>
      </trkpt>
      <trkpt lat="46.02796" lon="3.74401">
        <ele>602.85</ele>
        <time>2015-04-22T12:03:03Z</time>
      </trkpt>
      <trkpt lat="46.02813" lon="3.74388">
        <ele>602.51</ele>
        <time>2015-04-22T12:03:09Z</time>
      </trkpt>
      <trkpt lat="46.02818" lon="3.74361">
        <ele>602.99</ele>
        <time>2015-04-22T12:03:14Z</time>
      </trkpt>
      <trkpt lat="46.02817" lon="3.74334">
        <ele>603.44</ele>
        <time>2015-04-22T12:03:19Z</time>
      </trkpt>
      <trkpt lat="46.02817" lon="3.74304">
        <ele>602.61</ele>
        <time>2015-04-22T12:03:25Z</time>
      </trkpt>
      <trkpt lat="46.02825" lon="3.74278">
        <ele>600.6</ele>
        <time>2015-04-22T12:03:32Z</time>
      </trkpt>
      <trkpt lat="46.0284" lon="3.74255">
        <ele>598.21</ele>
        <time>2015-04-22T12:03:43Z</time>
      </trkpt>
      <trkpt lat="46.02857" lon="3.7424">
        <ele>596.7</ele>
        <time>2015-04-22T12:03:48Z</time>
      </trkpt>
      <trkpt lat="46.02874" lon="3.74227">
        <ele>594.21</ele>
        <time>2015-04-22T12:03:53Z</time>
      </trkpt>
      <trkpt lat="46.02892" lon="3.74217">
        <ele>592.97</ele>
        <time>2015-04-22T12:03:57Z</time>
      </trkpt>
      <trkpt lat="46.02911" lon="3.74208">
        <ele>590.93</ele>
        <time>2015-04-22T12:04:03Z</time>
      </trkpt>
      <trkpt lat="46.02928" lon="3.74202">
        <ele>588.82</ele>
        <time>2015-04-22T12:04:12Z</time>
      </trkpt>
      <trkpt lat="46.02946" lon="3.74196">
        <ele>587.18</ele>
        <time>2015-04-22T12:04:18Z</time>
      </trkpt>
      <trkpt lat="46.02965" lon="3.74187">
        <ele>584.15</ele>
        <time>2015-04-22T12:04:25Z</time>
      </trkpt>
      <trkpt lat="46.02985" lon="3.74178">
        <ele>583.34</ele>
        <time>2015-04-22T12:04:32Z</time>
      </trkpt>
      <trkpt lat="46.03003" lon="3.74181">
        <ele>583.07</ele>
        <time>2015-04-22T12:04:39Z</time>
      </trkpt>
      <trkpt lat="46.0302" lon="3.742">
        <ele>581.59</ele>
        <time>2015-04-22T12:04:46Z</time>
      </trkpt>
      <trkpt lat="46.03039" lon="3.74199">
        <ele>578.49</ele>
        <time>2015-04-22T12:04:53Z</time>
      </trkpt>
      <trkpt lat="46.03053" lon="3.74177">
        <ele>576.92</ele>
        <time>2015-04-22T12:05:00Z</time>
      </trkpt>
      <trkpt lat="46.03064" lon="3.74152">
        <ele>576.05</ele>
        <time>2015-04-22T12:05:07Z</time>
      </trkpt>
      <trkpt lat="46.03076" lon="3.7413">
        <ele>574.16</ele>
        <time>2015-04-22T12:05:12Z</time>
      </trkpt>
      <trkpt lat="46.03085" lon="3.74107">
        <ele>569.67</ele>
        <time>2015-04-22T12:05:18Z</time>
      </trkpt>
      <trkpt lat="46.03097" lon="3.74086">
        <ele>567.16</ele>
        <time>2015-04-22T12:05:24Z</time>
      </trkpt>
      <trkpt lat="46.03113" lon="3.74066">
        <ele>565.69</ele>
        <time>2015-04-22T12:05:30Z</time>
      </trkpt>
      <trkpt lat="46.03131" lon="3.74051">
        <ele>563.7</ele>
        <time>2015-04-22T12:05:36Z</time>
      </trkpt>
      <trkpt lat="46.03149" lon="3.74054">
        <ele>563.56</ele>
        <time>2015-04-22T12:05:42Z</time>
      </trkpt>
      <trkpt lat="46.03171" lon="3.74053">
        <ele>562.68</ele>
        <time>2015-04-22T12:05:48Z</time>
      </trkpt>
      <trkpt lat="46.0318" lon="3.7403">
        <ele>560.62</ele>
        <time>2015-04-22T12:05:52Z</time>
      </trkpt>
      <trkpt lat="46.0318" lon="3.74004">
        <ele>556.31</ele>
        <time>2015-04-22T12:05:57Z</time>
      </trkpt>
      <trkpt lat="46.0318" lon="3.73976">
        <ele>553.61</ele>
        <time>2015-04-22T12:06:03Z</time>
      </trkpt>
      <trkpt lat="46.03184" lon="3.73948">
        <ele>552.57</ele>
        <time>2015-04-22T12:06:10Z</time>
      </trkpt>
      <trkpt lat="46.03199" lon="3.73923">
        <ele>549.79</ele>
        <time>2015-04-22T12:06:16Z</time>
      </trkpt>
      <trkpt lat="46.03212" lon="3.73904">
        <ele>548.21</ele>
        <time>2015-04-22T12:06:19Z</time>
      </trkpt>
      <trkpt lat="46.03227" lon="3.73885">
        <ele>545.63</ele>
        <time>2015-04-22T12:06:22Z</time>
      </trkpt>
      <trkpt lat="46.03242" lon="3.73864">
        <ele>544.68</ele>
        <time>2015-04-22T12:06:26Z</time>
      </trkpt>
      <trkpt lat="46.03258" lon="3.73849">
        <ele>543.19</ele>
        <time>2015-04-22T12:06:29Z</time>
      </trkpt>
      <trkpt lat="46.03274" lon="3.73832">
        <ele>541.28</ele>
        <time>2015-04-22T12:06:33Z</time>
      </trkpt>
      <trkpt lat="46.03291" lon="3.73817">
        <ele>539.29</ele>
        <time>2015-04-22T12:06:37Z</time>
      </trkpt>
      <trkpt lat="46.03304" lon="3.73794">
        <ele>537.85</ele>
        <time>2015-04-22T12:06:41Z</time>
      </trkpt>
      <trkpt lat="46.03316" lon="3.73769">
        <ele>536.31</ele>
        <time>2015-04-22T12:06:46Z</time>
      </trkpt>
      <trkpt lat="46.0333" lon="3.73742">
        <ele>534.16</ele>
        <time>2015-04-22T12:06:50Z</time>
      </trkpt>
      <trkpt lat="46.03347" lon="3.73721">
        <ele>531.5</ele>
        <time>2015-04-22T12:06:53Z</time>
      </trkpt>
      <trkpt lat="46.03364" lon="3.73709">
        <ele>529.92</ele>
        <time>2015-04-22T12:06:56Z</time>
      </trkpt>
      <trkpt lat="46.03386" lon="3.73708">
        <ele>528.7</ele>
        <time>2015-04-22T12:07:00Z</time>
      </trkpt>
      <trkpt lat="46.03405" lon="3.73711">
        <ele>527.8</ele>
        <time>2015-04-22T12:07:35Z</time>
      </trkpt>
      <trkpt lat="46.03425" lon="3.73696">
        <ele>527.06</ele>
        <time>2015-04-22T12:07:40Z</time>
      </trkpt>
      <trkpt lat="46.03442" lon="3.73674">
        <ele>525.83</ele>
        <time>2015-04-22T12:07:44Z</time>
      </trkpt>
      <trkpt lat="46.03458" lon="3.73656">
        <ele>525.57</ele>
        <time>2015-04-22T12:07:48Z</time>
      </trkpt>
      <trkpt lat="46.03475" lon="3.73639">
        <ele>525.05</ele>
        <time>2015-04-22T12:07:52Z</time>
      </trkpt>
      <trkpt lat="46.0349" lon="3.73621">
        <ele>524.58</ele>
        <time>2015-04-22T12:07:56Z</time>
      </trkpt>
      <trkpt lat="46.03507" lon="3.73603">
        <ele>524.15</ele>
        <time>2015-04-22T12:08:01Z</time>
      </trkpt>
      <trkpt lat="46.03524" lon="3.73595">
        <ele>524.4</ele>
        <time>2015-04-22T12:08:05Z</time>
      </trkpt>
      <trkpt lat="46.03545" lon="3.73591">
        <ele>524.7</ele>
        <time>2015-04-22T12:08:10Z</time>
      </trkpt>
      <trkpt lat="46.03563" lon="3.73588">
        <ele>525.25</ele>
        <time>2015-04-22T12:08:14Z</time>
      </trkpt>
      <trkpt lat="46.03582" lon="3.73584">
        <ele>526.28</ele>
        <time>2015-04-22T12:08:18Z</time>
      </trkpt>
      <trkpt lat="46.03599" lon="3.73576">
        <ele>526.6</ele>
        <time>2015-04-22T12:08:22Z</time>
      </trkpt>
      <trkpt lat="46.03616" lon="3.73562">
        <ele>526.06</ele>
        <time>2015-04-22T12:08:26Z</time>
      </trkpt>
      <trkpt lat="46.03629" lon="3.73534">
        <ele>523.77</ele>
        <time>2015-04-22T12:08:30Z</time>
      </trkpt>
      <trkpt lat="46.0364" lon="3.7351">
        <ele>523.58</ele>
        <time>2015-04-22T12:08:33Z</time>
      </trkpt>
      <trkpt lat="46.03651" lon="3.73488">
        <ele>523.56</ele>
        <time>2015-04-22T12:08:36Z</time>
      </trkpt>
      <trkpt lat="46.0366" lon="3.73459">
        <ele>523.05</ele>
        <time>2015-04-22T12:08:40Z</time>
      </trkpt>
      <trkpt lat="46.03647" lon="3.73432">
        <ele>521.83</ele>
        <time>2015-04-22T12:08:44Z</time>
      </trkpt>
      <trkpt lat="46.03644" lon="3.734">
        <ele>521.57</ele>
        <time>2015-04-22T12:08:48Z</time>
      </trkpt>
      <trkpt lat="46.03651" lon="3.73366">
        <ele>519.74</ele>
        <time>2015-04-22T12:08:52Z</time>
      </trkpt>
      <trkpt lat="46.0366" lon="3.73335">
        <ele>519.06</ele>
        <time>2015-04-22T12:08:56Z</time>
      </trkpt>
      <trkpt lat="46.03668" lon="3.73304">
        <ele>518.08</ele>
        <time>2015-04-22T12:09:00Z</time>
      </trkpt>
      <trkpt lat="46.0368" lon="3.73275">
        <ele>517.65</ele>
        <time>2015-04-22T12:09:04Z</time>
      </trkpt>
      <trkpt lat="46.03693" lon="3.73249">
        <ele>515.93</ele>
        <time>2015-04-22T12:09:08Z</time>
      </trkpt>
      <trkpt lat="46.0371" lon="3.73229">
        <ele>515.58</ele>
        <time>2015-04-22T12:09:12Z</time>
      </trkpt>
      <trkpt lat="46.03723" lon="3.73211">
        <ele>516.49</ele>
        <time>2015-04-22T12:09:16Z</time>
      </trkpt>
      <trkpt lat="46.03727" lon="3.73185">
        <ele>516.05</ele>
        <time>2015-04-22T12:09:20Z</time>
      </trkpt>
      <trkpt lat="46.03726" lon="3.73153">
        <ele>517.51</ele>
        <time>2015-04-22T12:09:25Z</time>
      </trkpt>
      <trkpt lat="46.03718" lon="3.73126">
        <ele>519.4</ele>
        <time>2015-04-22T12:09:31Z</time>
      </trkpt>
      <trkpt lat="46.0372" lon="3.73097">
        <ele>517.91</ele>
        <time>2015-04-22T12:09:38Z</time>
      </trkpt>
      <trkpt lat="46.03732" lon="3.73076">
        <ele>517.76</ele>
        <time>2015-04-22T12:09:47Z</time>
      </trkpt>
      <trkpt lat="46.03748" lon="3.7306">
        <ele>521.94</ele>
        <time>2015-04-22T12:09:55Z</time>
      </trkpt>
      <trkpt lat="46.03733" lon="3.73077">
        <ele>522.55</ele>
        <time>2015-04-22T12:10:02Z</time>
      </trkpt>
      <trkpt lat="46.0372" lon="3.73098">
        <ele>520.71</ele>
        <time>2015-04-22T12:10:07Z</time>
      </trkpt>
      <trkpt lat="46.03713" lon="3.73124">
        <ele>516.46</ele>
        <time>2015-04-22T12:10:13Z</time>
      </trkpt>
    </trkseg>
  </trk>
</gpx>